Darstellungsparameter: Aktuell verwendete Einstellungen:
Skalierung der Graphiken ... ?
xyx+y,   Skalierungsfaktor:      Skalierung: Modus: x, Faktor: 1
Darstellungszeitraum ... ?
Vom - - bis: - -   Zeitraum: 13.09.2010 - 26.09.2010
Min/Max/Avg-Anzeige ... ?
Zeige MMA aktuell
Zeige MMA Monat
Zeige MMA alles
Zeige --A aktuell
Zeige --A Monat
Zeige --A alles
Keine MMA-Anzeige
MMA:
Keine MMA-Graphiken
MMA-Basis: 13.09.2010 - 26.09.2010
Quicknavigation für Darstellung... ?
Tage:      1T, 2T, 3T, 5T -1T -2T -3T -5T +1T +2T +3T +5T
Wochen: 1W, 2W, 3W -1W -2W -3W +1W +2W +3W
Monate: 1M, 3M, 6M -1M -3M -6M +1M +3M +6M
Jahre:    1J, 3J, 5J, 10J -1J -3J -5J -10J +1J +3J +5J +10J
Nutze für die Darstellung ... ?
Originaldaten oder Mittelwerte auf ...
Stundenbasis Tagesbasis Wochenbasis
Monatsbasis Jahresbasis      Datenbasis: Original-Daten
Darstellen als:
Statistik (Auto) Statistik J:M      Darstellung:
Zur Graphik,    zurück zur Übersicht aller Sensoren.
 
Tabellarische Datenbersicht: ?
 
Sensor: Nr:Datum:Temp:Abs-Feuchte:Windchill:Wind:
Aussen-T/F 1 13-09-2010 00:10:03 13.7 C 11.01 g/m*3 13.7 C 0 km/h
2 13-09-2010 00:22:02 13.6 C 10.95 g/m*3 13.6 C 0 km/h
3 13-09-2010 00:34:02 13.7 C 11.01 g/m*3 13.7 C 0 km/h
4 13-09-2010 00:46:02 13.7 C 11.01 g/m*3 13.7 C 0 km/h
5 13-09-2010 00:58:02 13.7 C 11.01 g/m*3 13.7 C 0 km/h
6 13-09-2010 01:10:02 13.6 C 10.95 g/m*3 13.6 C 0 km/h
7 13-09-2010 01:22:03 13.7 C 11.01 g/m*3 13.7 C 0 km/h
8 13-09-2010 01:34:02 13.8 C 11.08 g/m*3 13.8 C 0 km/h
9 13-09-2010 01:46:02 13.7 C 11.01 g/m*3 13.7 C 0 km/h
10 13-09-2010 01:58:02 13.7 C 11.01 g/m*3 13.7 C 0 km/h
11 13-09-2010 02:10:02 13.7 C 11.01 g/m*3 13.7 C 0 km/h
12 13-09-2010 02:22:02 13.5 C 10.88 g/m*3 13.5 C 0 km/h
13 13-09-2010 02:34:02 13.4 C 10.81 g/m*3 13.4 C 0 km/h
14 13-09-2010 02:46:02 13.4 C 10.81 g/m*3 13.4 C 0 km/h
15 13-09-2010 02:58:02 13.6 C 10.95 g/m*3 13.6 C 0 km/h
16 13-09-2010 03:10:01 13.5 C 10.88 g/m*3 13.5 C 0 km/h
17 13-09-2010 03:22:01 13.3 C 10.63 g/m*3 13.3 C 0 km/h
18 13-09-2010 03:34:02 13.2 C 10.56 g/m*3 13.2 C 0 km/h
19 13-09-2010 03:46:02 13.2 C 10.45 g/m*3 13.2 C 0 km/h
20 13-09-2010 03:58:02 13.1 C 10.38 g/m*3 13.1 C 0 km/h
21 13-09-2010 04:10:01 13 C 10.21 g/m*3 13 C 0 km/h
22 13-09-2010 04:22:02 12.8 C 10.19 g/m*3 12.8 C 0 km/h
23 13-09-2010 04:34:01 12.9 C 10.26 g/m*3 12.9 C 0 km/h
24 13-09-2010 04:46:01 13.1 C 10.16 g/m*3 13.1 C 0 km/h
25 13-09-2010 04:58:02 13.2 C 10.22 g/m*3 13.2 C 0 km/h
Sensor: Nr:Datum:Temp:Abs-Feuchte:Windchill:Wind:
Aussen-T/F 26 13-09-2010 05:10:01 13.3 C 10.05 g/m*3 13.3 C 0 km/h
27 13-09-2010 05:22:01 13.3 C 9.82 g/m*3 13.3 C 0 km/h
28 13-09-2010 05:34:02 13.2 C 9.64 g/m*3 13.2 C 0 km/h
29 13-09-2010 05:46:01 13.2 C 9.64 g/m*3 13.2 C 0 km/h
30 13-09-2010 05:58:01 13.3 C 9.7 g/m*3 13.3 C 0 km/h
31 13-09-2010 06:10:02 13.4 C 9.76 g/m*3 13.4 C 0 km/h
32 13-09-2010 06:22:01 13.4 C 9.65 g/m*3 13.4 C 0 km/h
33 13-09-2010 06:34:01 13.3 C 9.59 g/m*3 13.3 C 0 km/h
34 13-09-2010 06:46:01 13.2 C 9.42 g/m*3 13.2 C 0 km/h
35 13-09-2010 06:58:01 13.2 C 9.42 g/m*3 13.2 C 0 km/h
36 13-09-2010 07:10:02 13 C 9.19 g/m*3 13 C 0 km/h
37 13-09-2010 07:22:01 13 C 9.3 g/m*3 13 C 0 km/h
38 13-09-2010 07:34:01 12.7 C 9.13 g/m*3 12.7 C 0 km/h
39 13-09-2010 07:46:01 12.5 C 9.13 g/m*3 12.5 C 0 km/h
40 13-09-2010 07:58:01 12.4 C 9.18 g/m*3 12.4 C 0 km/h
41 13-09-2010 08:10:01 12.5 C 9.35 g/m*3 12.5 C 0 km/h
42 13-09-2010 08:22:01 13 C 9.64 g/m*3 13 C 0 km/h
43 13-09-2010 08:34:01 13.1 C 9.7 g/m*3 13.1 C 0 km/h
44 13-09-2010 08:46:02 13.2 C 9.64 g/m*3 13.2 C 0 km/h
45 13-09-2010 08:58:02 13.4 C 9.76 g/m*3 13.4 C 0 km/h
46 13-09-2010 09:10:01 13.5 C 9.71 g/m*3 13.5 C 0 km/h
47 13-09-2010 09:22:02 13.7 C 9.71 g/m*3 13.7 C 0 km/h
48 13-09-2010 09:34:01 14 C 9.41 g/m*3 14 C 0 km/h
49 13-09-2010 09:46:02 14.2 C 9.28 g/m*3 14.2 C 0 km/h
50 13-09-2010 09:58:02 14.5 C 9.2 g/m*3 14.5 C 0 km/h
Sensor: Nr:Datum:Temp:Abs-Feuchte:Windchill:Wind:
Aussen-T/F 51 13-09-2010 10:10:01 14.8 C 9.25 g/m*3 14.8 C 0 km/h
52 13-09-2010 10:22:01 15 C 9.1 g/m*3 15 C 0 km/h
53 13-09-2010 10:34:02 15.3 C 9.14 g/m*3 15.3 C 0 km/h
54 13-09-2010 10:46:01 15.6 C 8.91 g/m*3 15.6 C 0 km/h
55 13-09-2010 10:58:01 15.9 C 8.8 g/m*3 15.9 C 0 km/h
56 13-09-2010 11:10:01 16 C 8.58 g/m*3 16 C 0 km/h
57 13-09-2010 11:22:01 16.4 C 8.65 g/m*3 16.4 C 0 km/h
58 13-09-2010 11:34:02 16.3 C 8.74 g/m*3 16.3 C 0 km/h
59 13-09-2010 11:46:01 17.1 C 8.59 g/m*3 17.1 C 0 km/h
60 13-09-2010 11:58:01 16.7 C 8.24 g/m*3 16.7 C 0 km/h
61 13-09-2010 12:10:02 16.4 C 8.23 g/m*3 16.4 C 0 km/h
62 13-09-2010 12:22:01 16.9 C 8.2 g/m*3 16.9 C 0 km/h
63 13-09-2010 12:34:01 17.6 C 7.8 g/m*3 17.6 C 0 km/h
64 13-09-2010 12:46:01 17.6 C 7.5 g/m*3 17.6 C 0 km/h
65 13-09-2010 12:58:01 17.7 C 7.85 g/m*3 17.7 C 0 km/h
66 13-09-2010 13:10:01 18 C 7.37 g/m*3 18 C 0 km/h
67 13-09-2010 13:22:01 18.9 C 7.78 g/m*3 18.9 C 0 km/h
68 13-09-2010 13:34:01 18.9 C 7.45 g/m*3 18.9 C 0 km/h
69 13-09-2010 13:46:01 18.7 C 7.2 g/m*3 18.7 C 0 km/h
70 13-09-2010 13:58:01 20.2 C 7.87 g/m*3 20.2 C 0 km/h
71 13-09-2010 14:10:01 19.9 C 7.22 g/m*3 19.9 C 0 km/h
72 13-09-2010 14:22:02 19.5 C 6.55 g/m*3 19.5 C 0 km/h
73 13-09-2010 14:34:01 19.6 C 6.75 g/m*3 19.6 C 0 km/h
74 13-09-2010 14:46:02 20.6 C 7.34 g/m*3 20.6 C 0 km/h
75 13-09-2010 14:58:02 21.3 C 6.9 g/m*3 21.3 C 0 km/h
Sensor: Nr:Datum:Temp:Abs-Feuchte:Windchill:Wind:
Aussen-T/F 76 13-09-2010 15:10:01 20.9 C 6.74 g/m*3 20.9 C 0 km/h
77 13-09-2010 15:22:01 21.3 C 6.9 g/m*3 21.3 C 0 km/h
78 13-09-2010 15:34:01 21.2 C 6.67 g/m*3 21.2 C 0 km/h
79 13-09-2010 15:46:01 20.6 C 7.16 g/m*3 20.6 C 0 km/h
80 13-09-2010 15:58:01 20 C 7.95 g/m*3 20 C 0 km/h
81 13-09-2010 16:10:01 20.8 C 7.97 g/m*3 20.8 C 0 km/h
82 13-09-2010 16:22:02 21.4 C 6.37 g/m*3 21.4 C 0 km/h
83 13-09-2010 16:34:01 21.4 C 7.5 g/m*3 21.4 C 0 km/h
84 13-09-2010 16:46:02 21.8 C 6.52 g/m*3 21.8 C 0 km/h
85 13-09-2010 16:58:02 22.4 C 6.16 g/m*3 22.4 C 0 km/h
86 13-09-2010 17:10:01 22.3 C 7.11 g/m*3 22.3 C 0 km/h
87 13-09-2010 17:22:01 20.5 C 7.65 g/m*3 20.5 C 0 km/h
88 13-09-2010 17:34:01 20.2 C 7.87 g/m*3 20.2 C 0 km/h
89 13-09-2010 17:46:01 19.8 C 8.37 g/m*3 19.8 C 0 km/h
90 13-09-2010 17:58:02 19.6 C 8.61 g/m*3 19.6 C 0 km/h
91 13-09-2010 18:10:02 18.9 C 8.75 g/m*3 18.9 C 0 km/h
92 13-09-2010 18:22:02 18.4 C 8.65 g/m*3 18.4 C 0 km/h
93 13-09-2010 18:34:01 18.2 C 8.55 g/m*3 18.2 C 0 km/h
94 13-09-2010 18:46:02 17.9 C 8.55 g/m*3 17.9 C 0 km/h
95 13-09-2010 18:58:02 17.7 C 8.6 g/m*3 17.7 C 0 km/h
96 13-09-2010 19:10:01 17.7 C 8.6 g/m*3 17.7 C 0 km/h
97 13-09-2010 19:22:02 17.5 C 8.5 g/m*3 17.5 C 0 km/h
98 13-09-2010 19:34:01 17 C 8.68 g/m*3 17 C 0 km/h
99 13-09-2010 19:46:02 16.4 C 8.51 g/m*3 16.4 C 0 km/h
100 13-09-2010 19:58:02 16 C 8.45 g/m*3 16 C 0 km/h
Sensor: Nr:Datum:Temp:Abs-Feuchte:Windchill:Wind:
Aussen-T/F 101 13-09-2010 20:10:01 15.6 C 8.64 g/m*3 15.6 C 0 km/h
102 13-09-2010 20:22:01 15.4 C 8.8 g/m*3 15.4 C 0 km/h
103 13-09-2010 20:34:01 15.2 C 8.96 g/m*3 15.2 C 0 km/h
104 13-09-2010 20:46:01 15.1 C 9.03 g/m*3 15.1 C 0 km/h
105 13-09-2010 20:58:02 14.9 C 9.05 g/m*3 14.9 C 0 km/h
106 13-09-2010 21:10:01 14.7 C 8.94 g/m*3 14.7 C 0 km/h
107 13-09-2010 21:22:01 14.6 C 9.01 g/m*3 14.6 C 0 km/h
108 13-09-2010 21:34:02 14.5 C 8.95 g/m*3 14.5 C 0 km/h
109 13-09-2010 21:46:01 14.4 C 8.9 g/m*3 14.4 C 0 km/h
110 13-09-2010 21:58:01 14.4 C 9.02 g/m*3 14.4 C 0 km/h
111 13-09-2010 22:10:01 14.1 C 8.86 g/m*3 14.1 C 0 km/h
112 13-09-2010 22:23:05 13.8 C 8.82 g/m*3 13.8 C 0 km/h
113 13-09-2010 22:35:05 13.7 C 8.88 g/m*3 13.7 C 0 km/h
114 13-09-2010 22:47:05 13.5 C 8.89 g/m*3 13.5 C 0 km/h
115 13-09-2010 22:59:05 13.4 C 8.83 g/m*3 13.4 C 0 km/h
116 13-09-2010 23:11:05 13.3 C 8.78 g/m*3 13.3 C 0 km/h
117 13-09-2010 23:23:05 13.3 C 9.01 g/m*3 13.3 C 0 km/h
118 13-09-2010 23:35:05 13.1 C 8.9 g/m*3 13.1 C 0 km/h
119 13-09-2010 23:47:05 13 C 8.73 g/m*3 13 C 0 km/h
120 13-09-2010 23:59:05 13 C 8.85 g/m*3 13 C 0 km/h
121 14-09-2010 00:11:05 13 C 8.96 g/m*3 13 C 0 km/h
122 14-09-2010 00:23:05 12.8 C 9.18 g/m*3 12.8 C 0 km/h
123 14-09-2010 00:35:05 12.8 C 9.3 g/m*3 12.8 C 0 km/h
124 14-09-2010 00:47:05 12.8 C 9.3 g/m*3 12.8 C 0 km/h
125 14-09-2010 00:59:05 12.7 C 9.24 g/m*3 12.7 C 0 km/h
Sensor: Nr:Datum:Temp:Abs-Feuchte:Windchill:Wind:
Aussen-T/F 126 14-09-2010 01:11:05 12.6 C 9.18 g/m*3 12.6 C 0 km/h
127 14-09-2010 01:23:05 12.7 C 9.24 g/m*3 12.7 C 0 km/h
128 14-09-2010 01:35:05 12.8 C 9.3 g/m*3 12.8 C 0 km/h
129 14-09-2010 01:47:05 12.9 C 9.35 g/m*3 12.9 C 0 km/h
130 14-09-2010 01:59:05 13 C 9.3 g/m*3 13 C 0 km/h
131 14-09-2010 02:11:05 13 C 9.3 g/m*3 13 C 0 km/h
132 14-09-2010 02:23:05 13 C 9.3 g/m*3 13 C 0 km/h
133 14-09-2010 02:35:06 13.1 C 9.36 g/m*3 13.1 C 0 km/h
134 14-09-2010 02:47:06 13.2 C 9.42 g/m*3 13.2 C 0 km/h
135 14-09-2010 02:59:06 13.2 C 9.3 g/m*3 13.2 C 0 km/h
136 14-09-2010 03:11:06 13.4 C 9.18 g/m*3 13.4 C 0 km/h
137 14-09-2010 03:23:06 13.4 C 9.18 g/m*3 13.4 C 0 km/h
138 14-09-2010 03:35:06 13.3 C 9.24 g/m*3 13.3 C 0 km/h
139 14-09-2010 03:47:06 13.3 C 9.24 g/m*3 13.3 C 0 km/h
140 14-09-2010 03:59:06 13.4 C 9.3 g/m*3 13.4 C 0 km/h
141 14-09-2010 04:11:06 13.2 C 9.19 g/m*3 13.2 C 0 km/h
142 14-09-2010 04:23:06 13 C 9.3 g/m*3 13 C 0 km/h
143 14-09-2010 04:35:06 12.8 C 9.41 g/m*3 12.8 C 0 km/h
144 14-09-2010 04:47:06 12.9 C 9.58 g/m*3 12.9 C 0 km/h
145 14-09-2010 04:59:06 12.8 C 9.63 g/m*3 12.8 C 0 km/h
146 14-09-2010 05:11:06 12.9 C 9.81 g/m*3 12.9 C 0 km/h
147 14-09-2010 05:23:06 12.9 C 9.81 g/m*3 12.9 C 0 km/h
148 14-09-2010 05:35:06 13 C 9.87 g/m*3 13 C 0 km/h
149 14-09-2010 05:47:06 13 C 9.87 g/m*3 13 C 0 km/h
150 14-09-2010 05:59:06 13 C 9.87 g/m*3 13 C 0 km/h
Sensor: Nr:Datum:Temp:Abs-Feuchte:Windchill:Wind:
Aussen-T/F 151 14-09-2010 06:11:06 13.3 C 10.05 g/m*3 13.3 C 0 km/h
152 14-09-2010 06:23:06 13.5 C 9.83 g/m*3 13.5 C 0 km/h
153 14-09-2010 06:35:06 13.8 C 9.06 g/m*3 13.8 C 0 km/h
154 14-09-2010 06:47:06 14.5 C 8.83 g/m*3 14.5 C 0 km/h
155 14-09-2010 06:59:07 14.4 C 8.53 g/m*3 14.4 C 0 km/h
156 14-09-2010 07:11:07 14.4 C 8.53 g/m*3 14.4 C 0 km/h
157 14-09-2010 07:23:07 14.4 C 8.65 g/m*3 14.4 C 0 km/h
158 14-09-2010 07:35:04 14.3 C 8.85 g/m*3 14.3 C 0 km/h
159 14-09-2010 07:47:02 13.6 C 9.18 g/m*3 13.6 C 0 km/h
160 14-09-2010 07:59:02 13.6 C 9.42 g/m*3 13.6 C 0 km/h
161 14-09-2010 08:11:01 13.7 C 9.47 g/m*3 13.7 C 0 km/h
162 14-09-2010 08:23:02 13.7 C 9.47 g/m*3 13.7 C 0 km/h
163 14-09-2010 08:35:02 14.1 C 9.34 g/m*3 14.1 C 0 km/h
164 14-09-2010 08:47:02 14.4 C 9.15 g/m*3 14.4 C 0 km/h
165 14-09-2010 08:59:02 14.6 C 9.13 g/m*3 14.6 C 0 km/h
166 14-09-2010 09:11:01 14.7 C 9.07 g/m*3 14.7 C 0 km/h
167 14-09-2010 09:23:02 14.8 C 9.12 g/m*3 14.8 C 0 km/h
168 14-09-2010 09:35:02 15.1 C 9.03 g/m*3 15.1 C 0 km/h
169 14-09-2010 09:47:01 15.6 C 9.04 g/m*3 15.6 C 0 km/h
170 14-09-2010 09:59:01 15.6 C 9.04 g/m*3 15.6 C 0 km/h
171 14-09-2010 10:11:02 15.6 C 9.04 g/m*3 15.6 C 0 km/h
172 14-09-2010 10:23:01 15.7 C 9.1 g/m*3 15.7 C 0 km/h
173 14-09-2010 10:35:01 16 C 8.99 g/m*3 16 C 0 km/h
174 14-09-2010 10:47:01 16.4 C 8.93 g/m*3 16.4 C 0 km/h
175 14-09-2010 10:59:01 16.8 C 9.29 g/m*3 16.8 C 0 km/h
Sensor: Nr:Datum:Temp:Abs-Feuchte:Windchill:Wind:
Aussen-T/F 176 14-09-2010 11:11:02 17 C 8.97 g/m*3 17 C 0 km/h
177 14-09-2010 11:23:01 17.1 C 9.03 g/m*3 17.1 C 0 km/h
178 14-09-2010 11:35:01 17 C 9.12 g/m*3 17 C 0 km/h
179 14-09-2010 11:47:01 16.7 C 9.24 g/m*3 16.7 C 0 km/h
180 14-09-2010 11:59:01 17.5 C 9.39 g/m*3 17.5 C 0 km/h
181 14-09-2010 12:11:02 17.8 C 9.26 g/m*3 17.8 C 0 km/h
182 14-09-2010 12:23:02 18.2 C 9.01 g/m*3 18.2 C 0 km/h
183 14-09-2010 12:35:01 18.5 C 9.18 g/m*3 18.5 C 0 km/h
184 14-09-2010 12:47:02 18.8 C 9.18 g/m*3 18.8 C 0 km/h
185 14-09-2010 12:59:02 18.9 C 9.23 g/m*3 18.9 C 0 km/h
186 14-09-2010 13:11:01 19.6 C 9.28 g/m*3 19.6 C 0 km/h
187 14-09-2010 13:23:01 19.7 C 9.34 g/m*3 19.7 C 0 km/h
188 14-09-2010 13:35:01 20.2 C 9.44 g/m*3 20.2 C 0 km/h
189 14-09-2010 13:47:02 20.4 C 9.02 g/m*3 20.4 C 0 km/h
190 14-09-2010 13:59:02 20 C 8.99 g/m*3 20 C 0 km/h
191 14-09-2010 14:11:02 19.7 C 8.83 g/m*3 19.7 C 0 km/h
192 14-09-2010 14:23:02 19.7 C 9 g/m*3 19.7 C 0 km/h
193 14-09-2010 14:35:02 19.8 C 8.71 g/m*3 19.8 C 0 km/h
194 14-09-2010 14:47:01 19.6 C 8.78 g/m*3 19.6 C 0 km/h
195 14-09-2010 14:59:01 19.5 C 8.89 g/m*3 19.5 C 0 km/h
196 14-09-2010 15:11:02 20 C 8.81 g/m*3 20 C 0 km/h
197 14-09-2010 15:23:01 20 C 8.64 g/m*3 20 C 0 km/h
198 14-09-2010 15:35:02 20.4 C 8.67 g/m*3 20.4 C 0 km/h
199 14-09-2010 15:47:01 20.7 C 8.46 g/m*3 20.7 C 0 km/h
200 14-09-2010 15:59:01 20.9 C 8.56 g/m*3 20.9 C 0 km/h
Sensor: Nr:Datum:Temp:Abs-Feuchte:Windchill:Wind:
Aussen-T/F 201 14-09-2010 16:11:02 20.8 C 8.15 g/m*3 20.8 C 0 km/h
202 14-09-2010 16:23:01 20.9 C 8.2 g/m*3 20.9 C 0 km/h
203 14-09-2010 16:35:02 20.6 C 7.7 g/m*3 20.6 C 0 km/h
204 14-09-2010 16:47:01 20.6 C 7.7 g/m*3 20.6 C 0 km/h
205 14-09-2010 16:59:01 20.5 C 7.65 g/m*3 20.5 C 0 km/h
206 14-09-2010 17:11:02 20.5 C 7.47 g/m*3 20.5 C 0 km/h
207 14-09-2010 17:23:01 20.4 C 7.43 g/m*3 20.4 C 0 km/h
208 14-09-2010 17:35:01 20 C 7.26 g/m*3 20 C 0 km/h
209 14-09-2010 17:47:01 20 C 7.43 g/m*3 20 C 0 km/h
210 14-09-2010 17:59:01 19.8 C 7.69 g/m*3 19.8 C 0 km/h
211 14-09-2010 18:11:01 19.6 C 7.77 g/m*3 19.6 C 0 km/h
212 14-09-2010 18:23:02 19.4 C 7.84 g/m*3 19.4 C 0 km/h
213 14-09-2010 18:35:01 19.3 C 7.8 g/m*3 19.3 C 0 km/h
214 14-09-2010 18:47:02 19.3 C 7.8 g/m*3 19.3 C 0 km/h
215 14-09-2010 18:59:02 19.1 C 7.87 g/m*3 19.1 C 0 km/h
216 14-09-2010 19:11:01 19 C 7.82 g/m*3 19 C 0 km/h
217 14-09-2010 19:23:01 18.9 C 7.78 g/m*3 18.9 C 0 km/h
218 14-09-2010 19:35:01 18.7 C 7.68 g/m*3 18.7 C 0 km/h
219 14-09-2010 19:47:02 18.7 C 7.68 g/m*3 18.7 C 0 km/h
220 14-09-2010 19:59:03 18.7 C 7.68 g/m*3 18.7 C 0 km/h
221 14-09-2010 20:11:01 18.7 C 7.68 g/m*3 18.7 C 0 km/h
222 14-09-2010 20:23:02 18.6 C 7.64 g/m*3 18.6 C 0 km/h
223 14-09-2010 20:35:02 18.7 C 7.68 g/m*3 18.7 C 0 km/h
224 14-09-2010 20:47:02 18.5 C 7.75 g/m*3 18.5 C 0 km/h
225 14-09-2010 20:59:02 18.5 C 7.75 g/m*3 18.5 C 0 km/h
Sensor: Nr:Datum:Temp:Abs-Feuchte:Windchill:Wind:
Aussen-T/F 226 14-09-2010 21:11:03 18.5 C 7.75 g/m*3 18.5 C 0 km/h
227 14-09-2010 21:23:02 18.5 C 7.75 g/m*3 18.5 C 0 km/h
228 14-09-2010 21:35:02 18.6 C 7.96 g/m*3 18.6 C 0 km/h
229 14-09-2010 21:47:01 18.5 C 7.75 g/m*3 18.5 C 0 km/h
230 14-09-2010 21:59:01 18.6 C 7.64 g/m*3 18.6 C 0 km/h
231 14-09-2010 22:12:03 18.6 C 7.8 g/m*3 18.6 C 0 km/h
232 14-09-2010 22:24:03 18.5 C 7.75 g/m*3 18.5 C 0 km/h
233 14-09-2010 22:36:03 18.4 C 7.86 g/m*3 18.4 C 0 km/h
234 14-09-2010 22:48:03 18.5 C 7.91 g/m*3 18.5 C 0 km/h
235 14-09-2010 23:00:03 18.5 C 7.91 g/m*3 18.5 C 0 km/h
236 14-09-2010 23:12:03 18.4 C 7.86 g/m*3 18.4 C 0 km/h
237 14-09-2010 23:24:03 18.2 C 7.77 g/m*3 18.2 C 0 km/h
238 14-09-2010 23:36:04 18 C 7.99 g/m*3 18 C 0 km/h
239 14-09-2010 23:48:04 18 C 7.99 g/m*3 18 C 0 km/h
240 15-09-2010 00:00:04 18 C 7.99 g/m*3 18 C 0 km/h
241 15-09-2010 00:12:04 18 C 7.83 g/m*3 18 C 0 km/h
242 15-09-2010 00:24:04 18 C 7.83 g/m*3 18 C 0 km/h
243 15-09-2010 00:36:04 18 C 7.83 g/m*3 18 C 0 km/h
244 15-09-2010 00:48:04 18.1 C 7.88 g/m*3 18.1 C 0 km/h
245 15-09-2010 01:00:04 18.1 C 7.73 g/m*3 18.1 C 0 km/h
246 15-09-2010 01:12:04 18.1 C 7.73 g/m*3 18.1 C 0 km/h
247 15-09-2010 01:24:04 18.2 C 7.62 g/m*3 18.2 C 0 km/h
248 15-09-2010 01:36:04 18.3 C 7.66 g/m*3 18.3 C 0 km/h
249 15-09-2010 01:48:04 18.2 C 7.62 g/m*3 18.2 C 0 km/h
250 15-09-2010 02:00:04 18.3 C 7.66 g/m*3 18.3 C 0 km/h
Sensor: Nr:Datum:Temp:Abs-Feuchte:Windchill:Wind:
Aussen-T/F 251 15-09-2010 02:12:04 18.4 C 7.55 g/m*3 18.4 C 0 km/h
252 15-09-2010 02:24:04 18.4 C 7.55 g/m*3 18.4 C 0 km/h
253 15-09-2010 02:36:05 18.3 C 7.66 g/m*3 18.3 C 0 km/h
254 15-09-2010 02:48:05 18.2 C 7.77 g/m*3 18.2 C 0 km/h
255 15-09-2010 03:00:05 18.2 C 7.93 g/m*3 18.2 C 0 km/h
256 15-09-2010 03:12:05 18.1 C 8.03 g/m*3 18.1 C 0 km/h
257 15-09-2010 03:24:05 18 C 8.29 g/m*3 18 C 0 km/h
258 15-09-2010 03:36:05 18 C 8.45 g/m*3 18 C 0 km/h
259 15-09-2010 03:48:05 18 C 8.45 g/m*3 18 C 0 km/h
260 15-09-2010 04:00:05 17.9 C 8.7 g/m*3 17.9 C 0 km/h
261 15-09-2010 04:12:05 17.9 C 9.01 g/m*3 17.9 C 0 km/h
262 15-09-2010 04:24:05 17.7 C 9.05 g/m*3 17.7 C 0 km/h
263 15-09-2010 04:36:05 17.6 C 9.3 g/m*3 17.6 C 0 km/h
264 15-09-2010 04:48:05 17.4 C 9.48 g/m*3 17.4 C 0 km/h
265 15-09-2010 05:00:05 17.4 C 9.48 g/m*3 17.4 C 0 km/h
266 15-09-2010 05:12:05 16.9 C 10.07 g/m*3 16.9 C 0 km/h
267 15-09-2010 05:24:05 14.4 C 9.27 g/m*3 14.4 C 0 km/h
268 15-09-2010 05:36:05 13.3 C 9.7 g/m*3 13.3 C 0 km/h
269 15-09-2010 05:48:05 13 C 9.87 g/m*3 13 C 0 km/h
270 15-09-2010 06:00:05 12.9 C 10.03 g/m*3 12.9 C 0 km/h
271 15-09-2010 06:12:05 12.8 C 10.08 g/m*3 12.8 C 0 km/h
272 15-09-2010 06:24:05 12.7 C 10.02 g/m*3 12.7 C 0 km/h
273 15-09-2010 06:36:05 12.7 C 10.13 g/m*3 12.7 C 0 km/h
274 15-09-2010 06:48:05 12.8 C 10.19 g/m*3 12.8 C 0 km/h
275 15-09-2010 07:00:06 12.8 C 10.3 g/m*3 12.8 C 0 km/h
Sensor: Nr:Datum:Temp:Abs-Feuchte:Windchill:Wind:
Aussen-T/F 276 15-09-2010 07:12:06 12.7 C 10.24 g/m*3 12.7 C 0 km/h
277 15-09-2010 07:24:06 12.7 C 10.24 g/m*3 12.7 C 0 km/h
278 15-09-2010 07:36:03 12.8 C 10.3 g/m*3 12.8 C 0 km/h
279 15-09-2010 07:48:02 12.7 C 10.35 g/m*3 12.7 C 0 km/h
280 15-09-2010 08:00:02 12.6 C 10.29 g/m*3 12.6 C 0 km/h
281 15-09-2010 08:12:02 12.7 C 10.35 g/m*3 12.7 C 0 km/h
282 15-09-2010 08:24:02 12.7 C 10.35 g/m*3 12.7 C 0 km/h
283 15-09-2010 08:36:01 12.8 C 10.42 g/m*3 12.8 C 0 km/h
284 15-09-2010 08:48:02 12.7 C 10.35 g/m*3 12.7 C 0 km/h
285 15-09-2010 09:00:02 12.5 C 10.22 g/m*3 12.5 C 0 km/h
286 15-09-2010 09:12:01 12.7 C 10.35 g/m*3 12.7 C 0 km/h
287 15-09-2010 09:24:01 12.7 C 10.24 g/m*3 12.7 C 0 km/h
288 15-09-2010 09:36:02 13.1 C 10.38 g/m*3 13.1 C 0 km/h
289 15-09-2010 09:48:02 13.6 C 10.59 g/m*3 13.6 C 0 km/h
290 15-09-2010 10:00:02 14 C 10.49 g/m*3 14 C 0 km/h
291 15-09-2010 10:12:02 14 C 10.01 g/m*3 14 C 0 km/h
292 15-09-2010 10:24:02 14.1 C 9.95 g/m*3 14.1 C 0 km/h
293 15-09-2010 10:36:02 14.1 C 9.71 g/m*3 14.1 C 0 km/h
294 15-09-2010 10:48:02 14.1 C 9.59 g/m*3 14.1 C 0 km/h
295 15-09-2010 11:00:02 14.2 C 9.52 g/m*3 14.2 C 0 km/h
296 15-09-2010 11:12:02 14.6 C 9.01 g/m*3 14.6 C 0 km/h
297 15-09-2010 11:24:02 15 C 8.72 g/m*3 15 C 0 km/h
298 15-09-2010 11:36:02 15.6 C 8.51 g/m*3 15.6 C 0 km/h
299 15-09-2010 11:48:01 15.7 C 8.43 g/m*3 15.7 C 0 km/h
300 15-09-2010 12:00:01 16.2 C 7.31 g/m*3 16.2 C 0 km/h
Sensor: Nr:Datum:Temp:Abs-Feuchte:Windchill:Wind:
Aussen-T/F 301 15-09-2010 12:12:01 16.4 C 7.4 g/m*3 16.4 C 0 km/h
302 15-09-2010 12:24:01 17.2 C 7.18 g/m*3 17.2 C 0 km/h
303 15-09-2010 12:36:01 16.6 C 7.06 g/m*3 16.6 C 0 km/h
304 15-09-2010 12:48:02 16.1 C 6.17 g/m*3 16.1 C 0 km/h
305 15-09-2010 13:00:02 16.1 C 6.44 g/m*3 16.1 C 0 km/h
306 15-09-2010 13:12:02 16.4 C 6.7 g/m*3 16.4 C 0 km/h
307 15-09-2010 13:24:02 17.4 C 6.52 g/m*3 17.4 C 0 km/h
308 15-09-2010 13:36:02 17.9 C 5.95 g/m*3 17.9 C 0 km/h
309 15-09-2010 13:48:02 18.4 C 5.82 g/m*3 18.4 C 0 km/h
310 15-09-2010 14:00:02 18.5 C 5.7 g/m*3 18.5 C 0 km/h
311 15-09-2010 14:12:02 18.1 C 5.87 g/m*3 18.1 C 0 km/h
312 15-09-2010 14:24:02 18.5 C 5.54 g/m*3 18.5 C 0 km/h
313 15-09-2010 14:36:02 18.3 C 5.47 g/m*3 18.3 C 0 km/h
314 15-09-2010 14:48:02 18.5 C 5.7 g/m*3 18.5 C 0 km/h
315 15-09-2010 15:00:03 19.5 C 5.87 g/m*3 19.5 C 0 km/h
316 15-09-2010 15:12:01 19.6 C 5.4 g/m*3 19.6 C 0 km/h
317 15-09-2010 15:24:01 19.3 C 5.64 g/m*3 19.3 C 0 km/h
318 15-09-2010 15:36:02 19.2 C 5.94 g/m*3 19.2 C 0 km/h
319 15-09-2010 15:48:02 20 C 5.88 g/m*3 20 C 0 km/h
320 15-09-2010 16:00:02 19.6 C 5.91 g/m*3 19.6 C 0 km/h
321 15-09-2010 16:12:02 19.6 C 5.91 g/m*3 19.6 C 0 km/h
322 15-09-2010 16:24:02 19.3 C 5.97 g/m*3 19.3 C 0 km/h
323 15-09-2010 16:36:02 19.6 C 6.08 g/m*3 19.6 C 0 km/h
324 15-09-2010 16:48:02 19.5 C 6.04 g/m*3 19.5 C 0 km/h
325 15-09-2010 17:00:02 20.4 C 5.84 g/m*3 20.4 C 0 km/h
Sensor: Nr:Datum:Temp:Abs-Feuchte:Windchill:Wind:
Aussen-T/F 326 15-09-2010 17:12:02 19 C 5.7 g/m*3 19 C 0 km/h
327 15-09-2010 17:24:02 19.4 C 6.01 g/m*3 19.4 C 0 km/h
328 15-09-2010 17:36:02 19.9 C 5.84 g/m*3 19.9 C 0 km/h
329 15-09-2010 17:48:02 19.7 C 5.6 g/m*3 19.7 C 0 km/h
330 15-09-2010 18:00:02 18.7 C 5.44 g/m*3 18.7 C 0 km/h
331 15-09-2010 18:12:02 18.2 C 5.28 g/m*3 18.2 C 0 km/h
332 15-09-2010 18:24:03 17.5 C 5.22 g/m*3 17.5 C 0 km/h
333 15-09-2010 18:36:02 17.7 C 5.28 g/m*3 17.7 C 0 km/h
334 15-09-2010 18:48:02 17.1 C 5.39 g/m*3 17.1 C 0 km/h
335 15-09-2010 19:00:02 16.9 C 5.61 g/m*3 16.9 C 0 km/h
336 15-09-2010 19:12:02 16.7 C 5.4 g/m*3 16.7 C 0 km/h
337 15-09-2010 19:24:02 16.6 C 5.65 g/m*3 16.6 C 0 km/h
338 15-09-2010 19:36:02 16.4 C 5.72 g/m*3 16.4 C 0 km/h
339 15-09-2010 19:48:02 16.4 C 5.86 g/m*3 16.4 C 0 km/h
340 15-09-2010 20:00:02 16.2 C 6.07 g/m*3 16.2 C 0 km/h
341 15-09-2010 20:12:02 16 C 6.27 g/m*3 16 C 0 km/h
342 15-09-2010 20:24:02 15.8 C 6.46 g/m*3 15.8 C 0 km/h
343 15-09-2010 20:36:01 15.7 C 6.15 g/m*3 15.7 C 0 km/h
344 15-09-2010 20:48:02 15.5 C 6.34 g/m*3 15.5 C 0 km/h
345 15-09-2010 21:00:03 15.4 C 6.31 g/m*3 15.4 C 0 km/h
346 15-09-2010 21:12:01 15.2 C 6.49 g/m*3 15.2 C 0 km/h
347 15-09-2010 21:24:01 15 C 6.41 g/m*3 15 C 0 km/h
348 15-09-2010 21:37:02 15.1 C 6.32 g/m*3 15.1 C 0 km/h
349 15-09-2010 21:49:02 15.2 C 6.36 g/m*3 15.2 C 0 km/h
350 15-09-2010 22:01:02 15.1 C 6.32 g/m*3 15.1 C 0 km/h
Sensor: Nr:Datum:Temp:Abs-Feuchte:Windchill:Wind:
Aussen-T/F 351 15-09-2010 22:13:02 15.1 C 6.06 g/m*3 15.1 C 0 km/h
352 15-09-2010 22:25:02 14.9 C 5.86 g/m*3 14.9 C 0 km/h
353 15-09-2010 22:37:02 14.8 C 5.83 g/m*3 14.8 C 0 km/h
354 15-09-2010 22:49:02 14.9 C 5.74 g/m*3 14.9 C 0 km/h
355 15-09-2010 23:01:02 15 C 5.51 g/m*3 15 C 0 km/h
356 15-09-2010 23:13:02 15 C 5.51 g/m*3 15 C 0 km/h
357 15-09-2010 23:25:02 14.9 C 5.74 g/m*3 14.9 C 0 km/h
358 15-09-2010 23:37:02 14.8 C 5.7 g/m*3 14.8 C 0 km/h
359 15-09-2010 23:49:02 14.6 C 5.76 g/m*3 14.6 C 0 km/h
360 16-09-2010 00:01:02 14.5 C 5.97 g/m*3 14.5 C 0 km/h
361 16-09-2010 00:13:02 14.4 C 5.93 g/m*3 14.4 C 0 km/h
362 16-09-2010 00:25:02 14.2 C 5.86 g/m*3 14.2 C 0 km/h
363 16-09-2010 00:37:02 13.8 C 5.96 g/m*3 13.8 C 0 km/h
364 16-09-2010 00:49:02 14 C 5.79 g/m*3 14 C 0 km/h
365 16-09-2010 01:01:02 14.1 C 5.58 g/m*3 14.1 C 0 km/h
366 16-09-2010 01:13:03 14.2 C 5.49 g/m*3 14.2 C 0 km/h
367 16-09-2010 01:25:03 14.1 C 5.34 g/m*3 14.1 C 0 km/h
368 16-09-2010 01:37:03 14.1 C 5.34 g/m*3 14.1 C 0 km/h
369 16-09-2010 01:49:03 14 C 5.31 g/m*3 14 C 0 km/h
370 16-09-2010 02:01:03 13.9 C 5.51 g/m*3 13.9 C 0 km/h
371 16-09-2010 02:13:03 14.1 C 5.58 g/m*3 14.1 C 0 km/h
372 16-09-2010 02:25:03 14 C 5.79 g/m*3 14 C 0 km/h
373 16-09-2010 02:37:03 13.7 C 5.92 g/m*3 13.7 C 0 km/h
374 16-09-2010 02:49:03 14 C 6.15 g/m*3 14 C 0 km/h
375 16-09-2010 03:01:03 13.9 C 6.35 g/m*3 13.9 C 0 km/h
Sensor: Nr:Datum:Temp:Abs-Feuchte:Windchill:Wind:
Aussen-T/F 376 16-09-2010 03:13:03 13.9 C 6.59 g/m*3 13.9 C 0 km/h
377 16-09-2010 03:25:03 13.9 C 6.71 g/m*3 13.9 C 0 km/h
378 16-09-2010 03:37:03 13.8 C 6.79 g/m*3 13.8 C 0 km/h
379 16-09-2010 03:49:03 13.7 C 7.1 g/m*3 13.7 C 0 km/h
380 16-09-2010 04:01:03 13.2 C 7.12 g/m*3 13.2 C 0 km/h
381 16-09-2010 04:13:03 13.6 C 6.94 g/m*3 13.6 C 0 km/h
382 16-09-2010 04:25:03 13.7 C 6.87 g/m*3 13.7 C 0 km/h
383 16-09-2010 04:37:03 13.7 C 6.99 g/m*3 13.7 C 0 km/h
384 16-09-2010 04:49:03 13.7 C 6.99 g/m*3 13.7 C 0 km/h
385 16-09-2010 05:01:03 13.7 C 6.99 g/m*3 13.7 C 0 km/h
386 16-09-2010 05:13:03 13.6 C 7.06 g/m*3 13.6 C 0 km/h
387 16-09-2010 05:25:04 13.2 C 7.35 g/m*3 13.2 C 0 km/h
388 16-09-2010 05:37:04 13.1 C 7.42 g/m*3 13.1 C 0 km/h
389 16-09-2010 05:49:04 13.2 C 7.46 g/m*3 13.2 C 0 km/h
390 16-09-2010 06:01:04 13.1 C 7.65 g/m*3 13.1 C 0 km/h
391 16-09-2010 06:13:04 12.6 C 7.97 g/m*3 12.6 C 0 km/h
392 16-09-2010 06:25:04 12.5 C 8.03 g/m*3 12.5 C 0 km/h
393 16-09-2010 06:37:04 12.1 C 8.26 g/m*3 12.1 C 0 km/h
394 16-09-2010 06:49:04 11.9 C 8.47 g/m*3 11.9 C 0 km/h
395 16-09-2010 07:01:04 11.9 C 8.47 g/m*3 11.9 C 0 km/h
396 16-09-2010 07:13:04 11.9 C 8.58 g/m*3 11.9 C 0 km/h
397 16-09-2010 07:25:04 11.9 C 8.79 g/m*3 11.9 C 0 km/h
398 16-09-2010 07:37:04 11.6 C 8.73 g/m*3 11.6 C 0 km/h
399 16-09-2010 07:49:04 11.6 C 8.83 g/m*3 11.6 C 0 km/h
400 16-09-2010 08:01:02 11.6 C 8.83 g/m*3 11.6 C 0 km/h
Sensor: Nr:Datum:Temp:Abs-Feuchte:Windchill:Wind:
Aussen-T/F 401 16-09-2010 08:13:02 11.7 C 8.79 g/m*3 11.7 C 0 km/h
402 16-09-2010 08:25:02 12 C 8.85 g/m*3 12 C 0 km/h
403 16-09-2010 08:37:02 12 C 8.85 g/m*3 12 C 0 km/h
404 16-09-2010 08:49:02 12 C 8.85 g/m*3 12 C 0 km/h
405 16-09-2010 09:01:02 12 C 8.95 g/m*3 12 C 0 km/h
406 16-09-2010 09:13:02 12.1 C 9.01 g/m*3 12.1 C 0 km/h
407 16-09-2010 09:25:01 12.6 C 9.29 g/m*3 12.6 C 0 km/h
408 16-09-2010 09:37:02 13 C 9.41 g/m*3 13 C 0 km/h
409 16-09-2010 09:49:02 13.5 C 9.59 g/m*3 13.5 C 0 km/h
410 16-09-2010 10:01:02 13.7 C 9.12 g/m*3 13.7 C 0 km/h
411 16-09-2010 10:13:02 14 C 8.68 g/m*3 14 C 0 km/h
412 16-09-2010 10:25:02 14 C 8.56 g/m*3 14 C 0 km/h
413 16-09-2010 10:37:02 14.3 C 8.35 g/m*3 14.3 C 0 km/h
414 16-09-2010 10:49:02 14.6 C 8.51 g/m*3 14.6 C 0 km/h
415 16-09-2010 11:01:02 15.2 C 8.18 g/m*3 15.2 C 0 km/h
416 16-09-2010 11:13:02 15 C 8.08 g/m*3 15 C 0 km/h
417 16-09-2010 11:25:02 15.2 C 8.44 g/m*3 15.2 C 0 km/h
418 16-09-2010 11:37:02 15.1 C 8.26 g/m*3 15.1 C 0 km/h
419 16-09-2010 11:49:01 15.8 C 8.21 g/m*3 15.8 C 0 km/h
420 16-09-2010 12:01:02 16.4 C 7.82 g/m*3 16.4 C 0 km/h
421 16-09-2010 12:13:02 16.7 C 7.82 g/m*3 16.7 C 0 km/h
422 16-09-2010 12:25:02 17.2 C 7.61 g/m*3 17.2 C 0 km/h
423 16-09-2010 12:37:02 17.1 C 7.42 g/m*3 17.1 C 0 km/h
424 16-09-2010 12:49:02 17.7 C 7.69 g/m*3 17.7 C 0 km/h
425 16-09-2010 13:01:01 17.7 C 7.09 g/m*3 17.7 C 0 km/h
Sensor: Nr:Datum:Temp:Abs-Feuchte:Windchill:Wind:
Aussen-T/F 426 16-09-2010 13:13:01 17.9 C 7.02 g/m*3 17.9 C 0 km/h
427 16-09-2010 13:25:02 17.4 C 6.97 g/m*3 17.4 C 0 km/h
428 16-09-2010 13:37:01 16.9 C 7.34 g/m*3 16.9 C 0 km/h
429 16-09-2010 13:49:01 16.7 C 7.39 g/m*3 16.7 C 0 km/h
430 16-09-2010 14:01:01 17 C 7.23 g/m*3 17 C 0 km/h
431 16-09-2010 14:13:01 16 C 7.36 g/m*3 16 C 0 km/h
432 16-09-2010 14:25:01 14 C 8.81 g/m*3 14 C 0 km/h
433 16-09-2010 14:37:02 14.2 C 9.52 g/m*3 14.2 C 0 km/h
434 16-09-2010 14:49:02 15.2 C 10.25 g/m*3 15.2 C 0 km/h
435 16-09-2010 15:01:02 15.9 C 10.29 g/m*3 15.9 C 0 km/h
436 16-09-2010 15:13:02 16.8 C 9.44 g/m*3 16.8 C 0 km/h
437 16-09-2010 15:25:01 17 C 8.97 g/m*3 17 C 0 km/h
438 16-09-2010 15:37:02 18.5 C 9.02 g/m*3 18.5 C 0 km/h
439 16-09-2010 15:49:02 17.9 C 7.79 g/m*3 17.9 C 0 km/h
440 16-09-2010 16:01:02 18.3 C 7.82 g/m*3 18.3 C 0 km/h
441 16-09-2010 16:13:03 17.4 C 7.56 g/m*3 17.4 C 0 km/h
442 16-09-2010 16:25:01 16.6 C 8.05 g/m*3 16.6 C 0 km/h
443 16-09-2010 16:37:02 15 C 8.85 g/m*3 15 C 0 km/h
444 16-09-2010 16:49:02 14.5 C 9.7 g/m*3 14.5 C 0 km/h
445 16-09-2010 17:01:02 14.5 C 9.83 g/m*3 14.5 C 0 km/h
446 16-09-2010 17:13:02 15.1 C 10.06 g/m*3 15.1 C 0 km/h
447 16-09-2010 17:25:02 15.5 C 9.65 g/m*3 15.5 C 0 km/h
448 16-09-2010 17:37:02 15.2 C 9.22 g/m*3 15.2 C 0 km/h
449 16-09-2010 17:49:02 16.2 C 8.69 g/m*3 16.2 C 0 km/h
450 16-09-2010 18:01:02 15.3 C 8.88 g/m*3 15.3 C 0 km/h
Sensor: Nr:Datum:Temp:Abs-Feuchte:Windchill:Wind:
Aussen-T/F 451 16-09-2010 18:13:02 15 C 8.72 g/m*3 15 C 0 km/h
452 16-09-2010 18:25:02 15 C 8.85 g/m*3 15 C 0 km/h
453 16-09-2010 18:37:01 14.8 C 8.99 g/m*3 14.8 C 0 km/h
454 16-09-2010 18:49:02 14.4 C 9.27 g/m*3 14.4 C 0 km/h
455 16-09-2010 19:01:01 13.8 C 9.41 g/m*3 13.8 C 0 km/h
456 16-09-2010 19:13:01 13.5 C 9.59 g/m*3 13.5 C 0 km/h
457 16-09-2010 19:25:02 13.4 C 9.76 g/m*3 13.4 C 0 km/h
458 16-09-2010 19:37:02 13.3 C 9.82 g/m*3 13.3 C 0 km/h
459 16-09-2010 19:49:02 13.1 C 9.81 g/m*3 13.1 C 0 km/h
460 16-09-2010 20:01:02 13 C 9.87 g/m*3 13 C 0 km/h
461 16-09-2010 20:13:02 13 C 9.98 g/m*3 13 C 0 km/h
462 16-09-2010 20:25:02 12.8 C 10.08 g/m*3 12.8 C 0 km/h
463 16-09-2010 20:37:02 12.7 C 10.02 g/m*3 12.7 C 0 km/h
464 16-09-2010 20:49:02 12.7 C 10.13 g/m*3 12.7 C 0 km/h
465 16-09-2010 21:01:02 12.6 C 10.07 g/m*3 12.6 C 0 km/h
466 16-09-2010 21:13:02 12.7 C 10.13 g/m*3 12.7 C 0 km/h
467 16-09-2010 21:25:01 12.7 C 10.13 g/m*3 12.7 C 0 km/h
468 16-09-2010 21:37:02 12.6 C 10.07 g/m*3 12.6 C 0 km/h
469 16-09-2010 21:49:02 12.5 C 10 g/m*3 12.5 C 0 km/h
470 16-09-2010 22:01:02 12.2 C 9.71 g/m*3 12.2 C 0 km/h
471 16-09-2010 22:13:02 12.2 C 9.6 g/m*3 12.2 C 0 km/h
472 16-09-2010 22:25:02 12.2 C 9.6 g/m*3 12.2 C 0 km/h
473 16-09-2010 22:38:02 12.2 C 9.5 g/m*3 12.2 C 0 km/h
474 16-09-2010 22:50:02 12.2 C 9.5 g/m*3 12.2 C 0 km/h
475 16-09-2010 23:02:02 12.2 C 9.5 g/m*3 12.2 C 0 km/h
Sensor: Nr:Datum:Temp:Abs-Feuchte:Windchill:Wind:
Aussen-T/F 476 16-09-2010 23:14:02 12.1 C 9.33 g/m*3 12.1 C 0 km/h
477 16-09-2010 23:26:02 12.1 C 9.22 g/m*3 12.1 C 0 km/h
478 16-09-2010 23:38:02 12.1 C 9.22 g/m*3 12.1 C 0 km/h
479 16-09-2010 23:50:02 12 C 9.17 g/m*3 12 C 0 km/h
480 17-09-2010 00:02:02 12.1 C 9.12 g/m*3 12.1 C 0 km/h
481 17-09-2010 00:14:02 12.1 C 9.22 g/m*3 12.1 C 0 km/h
482 17-09-2010 00:26:02 12.2 C 9.28 g/m*3 12.2 C 0 km/h
483 17-09-2010 00:38:02 12.2 C 9.28 g/m*3 12.2 C 0 km/h
484 17-09-2010 00:50:02 12.2 C 9.28 g/m*3 12.2 C 0 km/h
485 17-09-2010 01:02:02 12.1 C 9.22 g/m*3 12.1 C 0 km/h
486 17-09-2010 01:14:03 12.1 C 9.22 g/m*3 12.1 C 0 km/h
487 17-09-2010 01:26:03 12.1 C 9.33 g/m*3 12.1 C 0 km/h
488 17-09-2010 01:38:03 12 C 9.27 g/m*3 12 C 0 km/h
489 17-09-2010 01:50:03 12 C 9.27 g/m*3 12 C 0 km/h
490 17-09-2010 02:02:03 11.9 C 9.32 g/m*3 11.9 C 0 km/h
491 17-09-2010 02:14:03 11.9 C 9.32 g/m*3 11.9 C 0 km/h
492 17-09-2010 02:26:03 12 C 9.38 g/m*3 12 C 0 km/h
493 17-09-2010 02:38:03 12 C 9.27 g/m*3 12 C 0 km/h
494 17-09-2010 02:50:03 12 C 9.17 g/m*3 12 C 0 km/h
495 17-09-2010 03:02:03 12.1 C 9.01 g/m*3 12.1 C 0 km/h
496 17-09-2010 03:14:03 12.1 C 8.9 g/m*3 12.1 C 0 km/h
497 17-09-2010 03:26:03 12.1 C 8.9 g/m*3 12.1 C 0 km/h
498 17-09-2010 03:38:03 12 C 8.95 g/m*3 12 C 0 km/h
499 17-09-2010 03:50:03 12 C 8.95 g/m*3 12 C 0 km/h
500 17-09-2010 04:02:03 12 C 9.06 g/m*3 12 C 0 km/h
Sensor: Nr:Datum:Temp:Abs-Feuchte:Windchill:Wind:
Aussen-T/F 501 17-09-2010 04:14:03 11.9 C 8.9 g/m*3 11.9 C 0 km/h
502 17-09-2010 04:26:03 12 C 8.85 g/m*3 12 C 0 km/h
503 17-09-2010 04:38:03 11.8 C 8.63 g/m*3 11.8 C 0 km/h
504 17-09-2010 04:50:03 12 C 8.21 g/m*3 12 C 0 km/h
505 17-09-2010 05:02:03 11.9 C 8.15 g/m*3 11.9 C 0 km/h
506 17-09-2010 05:14:03 11.5 C 8.16 g/m*3 11.5 C 0 km/h
507 17-09-2010 05:26:04 11.1 C 8.16 g/m*3 11.1 C 0 km/h
508 17-09-2010 05:38:04 10.8 C 8.3 g/m*3 10.8 C 0 km/h
509 17-09-2010 05:50:04 10.7 C 8.35 g/m*3 10.7 C 0 km/h
510 17-09-2010 06:02:04 10.5 C 8.34 g/m*3 10.5 C 0 km/h
511 17-09-2010 06:14:04 10.5 C 8.44 g/m*3 10.5 C 0 km/h
512 17-09-2010 06:26:04 10.7 C 8.74 g/m*3 10.7 C 0 km/h
513 17-09-2010 06:38:04 10.8 C 8.8 g/m*3 10.8 C 0 km/h
514 17-09-2010 06:50:04 10.5 C 8.63 g/m*3 10.5 C 0 km/h
515 17-09-2010 07:02:02 10.2 C 8.37 g/m*3 10.2 C 0 km/h
516 17-09-2010 07:14:02 10 C 8.27 g/m*3 10 C 0 km/h
517 17-09-2010 07:26:02 9.9 C 8.31 g/m*3 9.9 C 0 km/h
518 17-09-2010 07:38:01 10 C 7.99 g/m*3 10 C 0 km/h
519 17-09-2010 07:50:02 10 C 7.8 g/m*3 10 C 0 km/h
520 17-09-2010 08:02:01 9.9 C 7.84 g/m*3 9.9 C 0 km/h
521 17-09-2010 08:14:01 10 C 7.8 g/m*3 10 C 0 km/h
522 17-09-2010 08:26:01 10.1 C 7.66 g/m*3 10.1 C 0 km/h
523 17-09-2010 08:38:01 10.3 C 7.57 g/m*3 10.3 C 0 km/h
524 17-09-2010 08:50:01 10.8 C 7.41 g/m*3 10.8 C 0 km/h
525 17-09-2010 09:02:01 10.8 C 7.31 g/m*3 10.8 C 0 km/h
Sensor: Nr:Datum:Temp:Abs-Feuchte:Windchill:Wind:
Aussen-T/F 526 17-09-2010 09:14:01 10.7 C 7.27 g/m*3 10.7 C 0 km/h
527 17-09-2010 09:26:02 10.8 C 7.31 g/m*3 10.8 C 0 km/h
528 17-09-2010 09:38:01 10.9 C 7.26 g/m*3 10.9 C 0 km/h
529 17-09-2010 09:50:02 11.1 C 7.25 g/m*3 11.1 C 0 km/h
530 17-09-2010 10:02:02 11.4 C 7.39 g/m*3 11.4 C 0 km/h
531 17-09-2010 10:14:02 11.7 C 7.53 g/m*3 11.7 C 0 km/h
532 17-09-2010 10:26:02 12.1 C 7.61 g/m*3 12.1 C 0 km/h
533 17-09-2010 10:38:01 12.4 C 7.54 g/m*3 12.4 C 0 km/h
534 17-09-2010 10:50:02 12.7 C 7.68 g/m*3 12.7 C 0 km/h
535 17-09-2010 11:02:01 13.1 C 7.65 g/m*3 13.1 C 0 km/h
536 17-09-2010 11:14:01 13.3 C 7.63 g/m*3 13.3 C 0 km/h
537 17-09-2010 11:26:01 13.8 C 7.74 g/m*3 13.8 C 0 km/h
538 17-09-2010 11:38:02 14.1 C 7.4 g/m*3 14.1 C 0 km/h
539 17-09-2010 11:50:02 14.3 C 7.37 g/m*3 14.3 C 0 km/h
540 17-09-2010 12:02:02 15.2 C 7.01 g/m*3 15.2 C 0 km/h
541 17-09-2010 12:14:02 15.2 C 6.62 g/m*3 15.2 C 0 km/h
542 17-09-2010 12:26:02 15.7 C 6.42 g/m*3 15.7 C 0 km/h
543 17-09-2010 12:38:02 16.2 C 6.62 g/m*3 16.2 C 0 km/h
544 17-09-2010 12:50:02 16.2 C 6.21 g/m*3 16.2 C 0 km/h
545 17-09-2010 13:02:02 15.9 C 6.23 g/m*3 15.9 C 0 km/h
546 17-09-2010 13:14:02 16.2 C 5.93 g/m*3 16.2 C 0 km/h
547 17-09-2010 13:26:02 16.3 C 5.83 g/m*3 16.3 C 0 km/h
548 17-09-2010 13:38:02 17 C 5.79 g/m*3 17 C 0 km/h
549 17-09-2010 13:50:02 17.9 C 5.65 g/m*3 17.9 C 0 km/h
550 17-09-2010 14:02:02 18.5 C 5.54 g/m*3 18.5 C 0 km/h
Sensor: Nr:Datum:Temp:Abs-Feuchte:Windchill:Wind:
Aussen-T/F 551 17-09-2010 14:14:02 17.1 C 5.24 g/m*3 17.1 C 0 km/h
552 17-09-2010 14:26:02 16.8 C 5.29 g/m*3 16.8 C 0 km/h
553 17-09-2010 14:38:02 17.4 C 5.34 g/m*3 17.4 C 0 km/h
554 17-09-2010 14:50:02 18.3 C 5 g/m*3 18.3 C 0 km/h
555 17-09-2010 15:02:02 18.6 C 4.93 g/m*3 18.6 C 0 km/h
556 17-09-2010 15:14:02 18.2 C 4.97 g/m*3 18.2 C 0 km/h
557 17-09-2010 15:26:02 17.2 C 5.13 g/m*3 17.2 C 0 km/h
558 17-09-2010 15:38:02 16.6 C 5.09 g/m*3 16.6 C 0 km/h
559 17-09-2010 15:50:02 16.8 C 5.15 g/m*3 16.8 C 0 km/h
560 17-09-2010 16:02:02 18.4 C 5.19 g/m*3 18.4 C 0 km/h
561 17-09-2010 16:14:02 18.9 C 5.02 g/m*3 18.9 C 0 km/h
562 17-09-2010 16:26:02 19.3 C 4.81 g/m*3 19.3 C 0 km/h
563 17-09-2010 16:38:01 18.9 C 4.86 g/m*3 18.9 C 0 km/h
564 17-09-2010 16:50:02 19.8 C 4.78 g/m*3 19.8 C 0 km/h
565 17-09-2010 17:02:01 20.1 C 4.69 g/m*3 20.1 C 0 km/h
566 17-09-2010 17:14:01 19.7 C 4.25 g/m*3 19.7 C 0 km/h
567 17-09-2010 17:26:01 18.8 C 4.35 g/m*3 18.8 C 0 km/h
568 17-09-2010 17:38:02 19.3 C 4.31 g/m*3 19.3 C 0 km/h
569 17-09-2010 17:50:02 19.4 C 4.67 g/m*3 19.4 C 0 km/h
570 17-09-2010 18:02:02 17.5 C 5.22 g/m*3 17.5 C 0 km/h
571 17-09-2010 18:14:02 16 C 5.99 g/m*3 16 C 0 km/h
572 17-09-2010 18:26:02 17.2 C 6.3 g/m*3 17.2 C 0 km/h
573 17-09-2010 18:38:02 16.3 C 6.24 g/m*3 16.3 C 0 km/h
574 17-09-2010 18:50:01 16.3 C 6.66 g/m*3 16.3 C 0 km/h
575 17-09-2010 19:02:01 16.3 C 6.66 g/m*3 16.3 C 0 km/h
Sensor: Nr:Datum:Temp:Abs-Feuchte:Windchill:Wind:
Aussen-T/F 576 17-09-2010 19:14:02 15.7 C 6.56 g/m*3 15.7 C 0 km/h
577 17-09-2010 19:26:01 15 C 6.54 g/m*3 15 C 0 km/h
578 17-09-2010 19:38:01 14.7 C 6.8 g/m*3 14.7 C 0 km/h
579 17-09-2010 19:50:02 14.5 C 6.84 g/m*3 14.5 C 0 km/h
580 17-09-2010 20:02:02 14.5 C 6.96 g/m*3 14.5 C 0 km/h
581 17-09-2010 20:14:02 14.5 C 6.96 g/m*3 14.5 C 0 km/h
582 17-09-2010 20:26:02 14.5 C 7.09 g/m*3 14.5 C 0 km/h
583 17-09-2010 20:38:02 14.1 C 7.28 g/m*3 14.1 C 0 km/h
584 17-09-2010 20:50:01 13.7 C 6.99 g/m*3 13.7 C 0 km/h
585 17-09-2010 21:02:02 13.7 C 7.22 g/m*3 13.7 C 0 km/h
586 17-09-2010 21:14:02 13.5 C 7.13 g/m*3 13.5 C 0 km/h
587 17-09-2010 21:26:01 13.4 C 7.09 g/m*3 13.4 C 0 km/h
588 17-09-2010 21:38:01 13.4 C 7.09 g/m*3 13.4 C 0 km/h
589 17-09-2010 21:50:01 13.4 C 7.21 g/m*3 13.4 C 0 km/h
590 17-09-2010 22:02:01 13.6 C 6.94 g/m*3 13.6 C 0 km/h
591 17-09-2010 22:14:01 13.6 C 6.71 g/m*3 13.6 C 0 km/h
592 17-09-2010 22:26:02 13.4 C 6.63 g/m*3 13.4 C 0 km/h
593 17-09-2010 22:39:36 13.1 C 6.62 g/m*3 13.1 C 0 km/h
594 17-09-2010 22:51:37 13 C 6.69 g/m*3 13 C 0 km/h
595 17-09-2010 23:03:37 12.8 C 6.72 g/m*3 12.8 C 0 km/h
596 17-09-2010 23:15:37 12.6 C 6.75 g/m*3 12.6 C 0 km/h
597 17-09-2010 23:27:37 12.6 C 6.86 g/m*3 12.6 C 0 km/h
598 17-09-2010 23:39:37 12.5 C 6.82 g/m*3 12.5 C 0 km/h
599 17-09-2010 23:51:37 12.4 C 6.88 g/m*3 12.4 C 0 km/h
600 18-09-2010 00:03:37 12.2 C 6.8 g/m*3 12.2 C 0 km/h
Sensor: Nr:Datum:Temp:Abs-Feuchte:Windchill:Wind:
Aussen-T/F 601 18-09-2010 00:15:37 12.3 C 6.95 g/m*3 12.3 C 0 km/h
602 18-09-2010 00:27:37 12 C 6.82 g/m*3 12 C 0 km/h
603 18-09-2010 00:39:37 12 C 7.03 g/m*3 12 C 0 km/h
604 18-09-2010 00:51:37 12.1 C 7.08 g/m*3 12.1 C 0 km/h
605 18-09-2010 01:03:37 11.9 C 7.2 g/m*3 11.9 C 0 km/h
606 18-09-2010 01:15:37 11.2 C 6.99 g/m*3 11.2 C 0 km/h
607 18-09-2010 01:27:37 10.8 C 7.02 g/m*3 10.8 C 0 km/h
608 18-09-2010 01:39:37 10.4 C 6.94 g/m*3 10.4 C 0 km/h
609 18-09-2010 01:51:37 10.2 C 6.85 g/m*3 10.2 C 0 km/h
610 18-09-2010 02:03:37 10.2 C 6.95 g/m*3 10.2 C 0 km/h
611 18-09-2010 02:15:37 10 C 7.05 g/m*3 10 C 0 km/h
612 18-09-2010 02:27:37 10 C 7.24 g/m*3 10 C 0 km/h
613 18-09-2010 02:39:37 9.8 C 7.33 g/m*3 9.8 C 0 km/h
614 18-09-2010 02:51:37 10 C 7.42 g/m*3 10 C 0 km/h
615 18-09-2010 03:03:38 9.9 C 7.47 g/m*3 9.9 C 0 km/h
616 18-09-2010 03:15:38 9.5 C 7.28 g/m*3 9.5 C 0 km/h
617 18-09-2010 03:27:38 9.4 C 7.33 g/m*3 9.4 C 0 km/h
618 18-09-2010 03:39:38 9.1 C 7.19 g/m*3 9.1 C 0 km/h
619 18-09-2010 03:51:38 9 C 7.23 g/m*3 9 C 0 km/h
620 18-09-2010 04:03:38 8.9 C 7.36 g/m*3 8.9 C 0 km/h
621 18-09-2010 04:15:38 8.7 C 7.26 g/m*3 8.7 C 0 km/h
622 18-09-2010 04:27:38 8.5 C 7.17 g/m*3 8.5 C 0 km/h
623 18-09-2010 04:39:38 8.4 C 7.13 g/m*3 8.4 C 0 km/h
624 18-09-2010 04:51:38 8.2 C 7.03 g/m*3 8.2 C 0 km/h
625 18-09-2010 05:03:38 8.2 C 7.12 g/m*3 8.2 C 0 km/h
Sensor: Nr:Datum:Temp:Abs-Feuchte:Windchill:Wind:
Aussen-T/F 626 18-09-2010 05:15:38 8.1 C 7.16 g/m*3 8.1 C 0 km/h
627 18-09-2010 05:27:38 7.9 C 7.23 g/m*3 7.9 C 0 km/h
628 18-09-2010 05:39:38 7.7 C 7.14 g/m*3 7.7 C 0 km/h
629 18-09-2010 05:51:38 7.8 C 7.26 g/m*3 7.8 C 0 km/h
630 18-09-2010 06:03:38 7.8 C 7.35 g/m*3 7.8 C 0 km/h
631 18-09-2010 06:15:38 7.5 C 7.28 g/m*3 7.5 C 0 km/h
632 18-09-2010 06:27:38 7.5 C 7.28 g/m*3 7.5 C 0 km/h
633 18-09-2010 06:39:38 7.6 C 7.41 g/m*3 7.6 C 0 km/h
634 18-09-2010 06:51:38 7.7 C 7.46 g/m*3 7.7 C 0 km/h
635 18-09-2010 07:03:39 7.7 C 7.46 g/m*3 7.7 C 0 km/h
636 18-09-2010 07:15:39 7.6 C 7.33 g/m*3 7.6 C 0 km/h
637 18-09-2010 07:27:39 7.5 C 7.28 g/m*3 7.5 C 0 km/h
638 18-09-2010 07:39:39 7.3 C 7.19 g/m*3 7.3 C 0 km/h
639 18-09-2010 07:51:39 7.4 C 7.24 g/m*3 7.4 C 0 km/h
640 18-09-2010 08:03:02 7.3 C 7.11 g/m*3 7.3 C 0 km/h
641 18-09-2010 08:15:03 7.4 C 7.16 g/m*3 7.4 C 0 km/h
642 18-09-2010 08:27:03 7.5 C 7.28 g/m*3 7.5 C 0 km/h
643 18-09-2010 08:39:02 7.5 C 7.28 g/m*3 7.5 C 0 km/h
644 18-09-2010 08:51:02 7.6 C 7.33 g/m*3 7.6 C 0 km/h
645 18-09-2010 09:03:02 7.7 C 7.38 g/m*3 7.7 C 0 km/h
646 18-09-2010 09:15:02 7.8 C 7.43 g/m*3 7.8 C 0 km/h
647 18-09-2010 09:27:02 8 C 7.44 g/m*3 8 C 0 km/h
648 18-09-2010 09:39:02 8.2 C 7.54 g/m*3 8.2 C 0 km/h
649 18-09-2010 09:51:02 8.9 C 7.97 g/m*3 8.9 C 0 km/h
650 18-09-2010 10:03:02 9.3 C 8.09 g/m*3 9.3 C 0 km/h
Sensor: Nr:Datum:Temp:Abs-Feuchte:Windchill:Wind:
Aussen-T/F 651 18-09-2010 10:15:02 9.5 C 8.1 g/m*3 9.5 C 0 km/h
652 18-09-2010 10:27:03 9.8 C 8.07 g/m*3 9.8 C 0 km/h
653 18-09-2010 10:39:01 10.7 C 8.25 g/m*3 10.7 C 0 km/h
654 18-09-2010 10:51:02 11.7 C 8.37 g/m*3 11.7 C 0 km/h
655 18-09-2010 11:03:02 12.2 C 6.91 g/m*3 12.2 C 0 km/h
656 18-09-2010 11:15:02 13 C 6.8 g/m*3 13 C 0 km/h
657 18-09-2010 11:27:02 13.6 C 6.59 g/m*3 13.6 C 0 km/h
658 18-09-2010 11:39:02 14 C 6.39 g/m*3 14 C 0 km/h
659 18-09-2010 11:51:01 14.5 C 6.47 g/m*3 14.5 C 0 km/h
660 18-09-2010 12:03:02 14.6 C 6.13 g/m*3 14.6 C 0 km/h
661 18-09-2010 12:15:01 15.7 C 6.15 g/m*3 15.7 C 0 km/h
662 18-09-2010 12:27:01 15.1 C 5.42 g/m*3 15.1 C 0 km/h
663 18-09-2010 12:39:01 15.4 C 6.04 g/m*3 15.4 C 0 km/h
664 18-09-2010 12:51:01 14.9 C 5.86 g/m*3 14.9 C 0 km/h
665 18-09-2010 13:03:02 14.9 C 5.86 g/m*3 14.9 C 0 km/h
666 18-09-2010 13:15:01 15.3 C 5.48 g/m*3 15.3 C 0 km/h
667 18-09-2010 13:27:01 15.6 C 5.32 g/m*3 15.6 C 0 km/h
668 18-09-2010 13:39:01 15.8 C 5.25 g/m*3 15.8 C 0 km/h
669 18-09-2010 13:51:01 16.4 C 5.16 g/m*3 16.4 C 0 km/h
670 18-09-2010 14:03:01 16.2 C 4.96 g/m*3 16.2 C 0 km/h
671 18-09-2010 14:15:02 15.4 C 4.73 g/m*3 15.4 C 0 km/h
672 18-09-2010 14:27:02 14.7 C 4.66 g/m*3 14.7 C 0 km/h
673 18-09-2010 14:39:01 14.9 C 4.72 g/m*3 14.9 C 0 km/h
674 18-09-2010 14:51:02 15.1 C 4.77 g/m*3 15.1 C 0 km/h
675 18-09-2010 15:03:02 15.4 C 4.6 g/m*3 15.4 C 0 km/h
Sensor: Nr:Datum:Temp:Abs-Feuchte:Windchill:Wind:
Aussen-T/F 676 18-09-2010 15:15:02 16.1 C 4.52 g/m*3 16.1 C 0 km/h
677 18-09-2010 15:27:02 15.9 C 4.74 g/m*3 15.9 C 0 km/h
678 18-09-2010 15:39:02 17.3 C 4.57 g/m*3 17.3 C 0 km/h
679 18-09-2010 15:51:02 16.8 C 4.43 g/m*3 16.8 C 0 km/h
680 18-09-2010 16:03:01 16.4 C 4.75 g/m*3 16.4 C 0 km/h
681 18-09-2010 16:15:02 16.2 C 4.55 g/m*3 16.2 C 0 km/h
682 18-09-2010 16:27:03 16.1 C 4.66 g/m*3 16.1 C 0 km/h
683 18-09-2010 16:39:01 16.1 C 4.8 g/m*3 16.1 C 0 km/h
684 18-09-2010 16:51:02 16.3 C 5.55 g/m*3 16.3 C 0 km/h
685 18-09-2010 17:03:02 16.3 C 4.99 g/m*3 16.3 C 0 km/h
686 18-09-2010 17:15:02 16.4 C 6.14 g/m*3 16.4 C 0 km/h
687 18-09-2010 17:27:02 16.3 C 5.41 g/m*3 16.3 C 0 km/h
688 18-09-2010 17:39:02 15.6 C 6.12 g/m*3 15.6 C 0 km/h
689 18-09-2010 17:51:01 14.7 C 5.92 g/m*3 14.7 C 0 km/h
690 18-09-2010 18:03:02 14.5 C 6.09 g/m*3 14.5 C 0 km/h
691 18-09-2010 18:15:01 15.6 C 5.98 g/m*3 15.6 C 0 km/h
692 18-09-2010 18:27:01 16.2 C 5.93 g/m*3 16.2 C 0 km/h
693 18-09-2010 18:39:01 16.2 C 6.07 g/m*3 16.2 C 0 km/h
694 18-09-2010 18:51:01 15.8 C 6.19 g/m*3 15.8 C 0 km/h
695 18-09-2010 19:03:02 15.2 C 6.1 g/m*3 15.2 C 0 km/h
696 18-09-2010 19:15:01 14 C 5.91 g/m*3 14 C 0 km/h
697 18-09-2010 19:27:01 13 C 6.12 g/m*3 13 C 0 km/h
698 18-09-2010 19:39:01 12.2 C 6.04 g/m*3 12.2 C 0 km/h
699 18-09-2010 19:51:01 11.9 C 6.14 g/m*3 11.9 C 0 km/h
700 18-09-2010 20:03:02 11.4 C 6.36 g/m*3 11.4 C 0 km/h
Sensor: Nr:Datum:Temp:Abs-Feuchte:Windchill:Wind:
Aussen-T/F 701 18-09-2010 20:15:02 11.2 C 6.39 g/m*3 11.2 C 0 km/h
702 18-09-2010 20:27:02 11.1 C 6.75 g/m*3 11.1 C 0 km/h
703 18-09-2010 20:39:01 10.9 C 6.76 g/m*3 10.9 C 0 km/h
704 18-09-2010 20:51:01 10.8 C 6.72 g/m*3 10.8 C 0 km/h
705 18-09-2010 21:03:01 10.6 C 6.73 g/m*3 10.6 C 0 km/h
706 18-09-2010 21:15:02 10.2 C 6.66 g/m*3 10.2 C 0 km/h
707 18-09-2010 21:27:02 10 C 6.48 g/m*3 10 C 0 km/h
708 18-09-2010 21:39:01 9.7 C 6.64 g/m*3 9.7 C 0 km/h
709 18-09-2010 21:51:02 9.6 C 6.6 g/m*3 9.6 C 0 km/h
710 18-09-2010 22:03:02 9.3 C 6.56 g/m*3 9.3 C 0 km/h
711 18-09-2010 22:15:02 9.2 C 6.61 g/m*3 9.2 C 0 km/h
712 18-09-2010 22:27:02 9 C 6.7 g/m*3 9 C 0 km/h
713 18-09-2010 22:40:03 8.8 C 6.79 g/m*3 8.8 C 0 km/h
714 18-09-2010 22:52:03 8.6 C 6.79 g/m*3 8.6 C 0 km/h
715 18-09-2010 23:04:03 8.5 C 6.74 g/m*3 8.5 C 0 km/h
716 18-09-2010 23:16:03 8.4 C 6.87 g/m*3 8.4 C 0 km/h
717 18-09-2010 23:28:03 8.2 C 6.78 g/m*3 8.2 C 0 km/h
718 18-09-2010 23:40:03 8 C 6.7 g/m*3 8 C 0 km/h
719 18-09-2010 23:52:03 7.9 C 6.74 g/m*3 7.9 C 0 km/h
720 19-09-2010 00:04:03 7.8 C 6.77 g/m*3 7.8 C 0 km/h
721 19-09-2010 00:16:03 7.7 C 6.73 g/m*3 7.7 C 0 km/h
722 19-09-2010 00:28:03 7.6 C 6.77 g/m*3 7.6 C 0 km/h
723 19-09-2010 00:40:03 7.4 C 6.68 g/m*3 7.4 C 0 km/h
724 19-09-2010 00:52:03 7.3 C 6.64 g/m*3 7.3 C 0 km/h
725 19-09-2010 01:04:04 7.1 C 6.47 g/m*3 7.1 C 0 km/h
Sensor: Nr:Datum:Temp:Abs-Feuchte:Windchill:Wind:
Aussen-T/F 726 19-09-2010 01:16:04 7.1 C 6.55 g/m*3 7.1 C 0 km/h
727 19-09-2010 01:28:04 6.9 C 6.54 g/m*3 6.9 C 0 km/h
728 19-09-2010 01:40:04 6.8 C 6.58 g/m*3 6.8 C 0 km/h
729 19-09-2010 01:52:04 6.7 C 6.53 g/m*3 6.7 C 0 km/h
730 19-09-2010 02:04:04 6.6 C 6.57 g/m*3 6.6 C 0 km/h
731 19-09-2010 02:16:04 6.4 C 6.48 g/m*3 6.4 C 0 km/h
732 19-09-2010 02:28:04 6.4 C 6.48 g/m*3 6.4 C 0 km/h
733 19-09-2010 02:40:04 6.4 C 6.56 g/m*3 6.4 C 0 km/h
734 19-09-2010 02:52:04 6.4 C 6.56 g/m*3 6.4 C 0 km/h
735 19-09-2010 03:04:04 6.4 C 6.56 g/m*3 6.4 C 0 km/h
736 19-09-2010 03:16:04 6.4 C 6.56 g/m*3 6.4 C 0 km/h
737 19-09-2010 03:28:04 6.4 C 6.56 g/m*3 6.4 C 0 km/h
738 19-09-2010 03:40:04 6.5 C 6.6 g/m*3 6.5 C 0 km/h
739 19-09-2010 03:52:04 6.4 C 6.56 g/m*3 6.4 C 0 km/h
740 19-09-2010 04:04:04 6.3 C 6.51 g/m*3 6.3 C 0 km/h
741 19-09-2010 04:16:04 6.1 C 6.43 g/m*3 6.1 C 0 km/h
742 19-09-2010 04:28:04 5.9 C 6.42 g/m*3 5.9 C 0 km/h
743 19-09-2010 04:40:04 6.2 C 6.47 g/m*3 6.2 C 0 km/h
744 19-09-2010 04:52:04 6.5 C 6.67 g/m*3 6.5 C 0 km/h
745 19-09-2010 05:04:05 6.6 C 6.72 g/m*3 6.6 C 0 km/h
746 19-09-2010 05:16:05 6.2 C 6.47 g/m*3 6.2 C 0 km/h
747 19-09-2010 05:28:05 6 C 6.39 g/m*3 6 C 0 km/h
748 19-09-2010 05:40:05 5.8 C 6.3 g/m*3 5.8 C 0 km/h
749 19-09-2010 05:52:05 5.6 C 6.22 g/m*3 5.6 C 0 km/h
750 19-09-2010 06:04:05 5.5 C 6.18 g/m*3 5.5 C 0 km/h
Sensor: Nr:Datum:Temp:Abs-Feuchte:Windchill:Wind:
Aussen-T/F 751 19-09-2010 06:16:05 5.5 C 6.18 g/m*3 5.5 C 0 km/h
752 19-09-2010 06:28:05 5.7 C 6.33 g/m*3 5.7 C 0 km/h
753 19-09-2010 06:40:05 6 C 6.46 g/m*3 6 C 0 km/h
754 19-09-2010 06:52:05 6.1 C 6.5 g/m*3 6.1 C 0 km/h
755 19-09-2010 07:04:05 6.3 C 6.59 g/m*3 6.3 C 0 km/h
756 19-09-2010 07:16:05 6.1 C 6.5 g/m*3 6.1 C 0 km/h
757 19-09-2010 07:28:05 5.8 C 6.38 g/m*3 5.8 C 0 km/h
758 19-09-2010 07:40:05 5.9 C 6.42 g/m*3 5.9 C 0 km/h
759 19-09-2010 07:52:05 5.9 C 6.42 g/m*3 5.9 C 0 km/h
760 19-09-2010 08:04:05 6.2 C 6.47 g/m*3 6.2 C 0 km/h
761 19-09-2010 08:16:05 6.7 C 6.76 g/m*3 6.7 C 0 km/h
762 19-09-2010 08:28:05 7.3 C 6.95 g/m*3 7.3 C 0 km/h
763 19-09-2010 08:40:05 7.4 C 7 g/m*3 7.4 C 0 km/h
764 19-09-2010 08:52:02 7.2 C 6.75 g/m*3 7.2 C 0 km/h
765 19-09-2010 09:04:02 7.2 C 6.67 g/m*3 7.2 C 0 km/h
766 19-09-2010 09:16:02 7.3 C 6.79 g/m*3 7.3 C 0 km/h
767 19-09-2010 09:28:02 7.7 C 6.97 g/m*3 7.7 C 0 km/h
768 19-09-2010 09:40:02 8.8 C 7.31 g/m*3 8.8 C 0 km/h
769 19-09-2010 09:52:01 9.6 C 7.15 g/m*3 9.6 C 0 km/h
770 19-09-2010 10:04:01 10.2 C 6.76 g/m*3 10.2 C 0 km/h
771 19-09-2010 10:16:01 10.9 C 6.86 g/m*3 10.9 C 0 km/h
772 19-09-2010 10:28:01 10.8 C 6.62 g/m*3 10.8 C 0 km/h
773 19-09-2010 10:40:01 10.7 C 6.58 g/m*3 10.7 C 0 km/h
774 19-09-2010 10:52:01 11 C 6.61 g/m*3 11 C 0 km/h
775 19-09-2010 11:04:01 11.5 C 6.51 g/m*3 11.5 C 0 km/h
Sensor: Nr:Datum:Temp:Abs-Feuchte:Windchill:Wind:
Aussen-T/F 776 19-09-2010 11:16:02 12.2 C 6.58 g/m*3 12.2 C 0 km/h
777 19-09-2010 11:28:02 13.3 C 6.47 g/m*3 13.3 C 0 km/h
778 19-09-2010 11:40:01 13.8 C 5.96 g/m*3 13.8 C 0 km/h
779 19-09-2010 11:52:03 13.8 C 5.72 g/m*3 13.8 C 0 km/h
780 19-09-2010 12:04:02 13.8 C 5.84 g/m*3 13.8 C 0 km/h
781 19-09-2010 12:16:02 14.3 C 5.9 g/m*3 14.3 C 0 km/h
782 19-09-2010 12:28:02 15.2 C 5.84 g/m*3 15.2 C 0 km/h
783 19-09-2010 12:40:02 15.7 C 5.35 g/m*3 15.7 C 0 km/h
784 19-09-2010 12:52:02 15.7 C 5.35 g/m*3 15.7 C 0 km/h
785 19-09-2010 13:04:01 16.2 C 5.52 g/m*3 16.2 C 0 km/h
786 19-09-2010 13:16:02 16.4 C 5.58 g/m*3 16.4 C 0 km/h
787 19-09-2010 13:28:02 16.1 C 5.48 g/m*3 16.1 C 0 km/h
788 19-09-2010 13:40:02 16 C 5.59 g/m*3 16 C 0 km/h
789 19-09-2010 13:52:01 15.9 C 5.55 g/m*3 15.9 C 0 km/h
790 19-09-2010 14:04:02 16.5 C 5.62 g/m*3 16.5 C 0 km/h
791 19-09-2010 14:16:01 17.5 C 5.67 g/m*3 17.5 C 0 km/h
792 19-09-2010 14:28:01 17.5 C 5.67 g/m*3 17.5 C 0 km/h
793 19-09-2010 14:40:01 17.5 C 5.67 g/m*3 17.5 C 0 km/h
794 19-09-2010 14:52:01 17.9 C 5.8 g/m*3 17.9 C 0 km/h
795 19-09-2010 15:04:02 17.8 C 5.46 g/m*3 17.8 C 0 km/h
796 19-09-2010 15:16:01 18.6 C 5.73 g/m*3 18.6 C 0 km/h
797 19-09-2010 15:28:01 18.4 C 5.66 g/m*3 18.4 C 0 km/h
798 19-09-2010 15:40:02 19 C 5.38 g/m*3 19 C 0 km/h
799 19-09-2010 15:52:01 19.3 C 4.98 g/m*3 19.3 C 0 km/h
800 19-09-2010 16:04:02 18.8 C 5.31 g/m*3 18.8 C 0 km/h
Sensor: Nr:Datum:Temp:Abs-Feuchte:Windchill:Wind:
Aussen-T/F 801 19-09-2010 16:16:01 18.6 C 5.41 g/m*3 18.6 C 0 km/h
802 19-09-2010 16:28:01 18.8 C 5.31 g/m*3 18.8 C 0 km/h
803 19-09-2010 16:40:02 19.6 C 5.4 g/m*3 19.6 C 0 km/h
804 19-09-2010 16:52:01 19.4 C 5.01 g/m*3 19.4 C 0 km/h
805 19-09-2010 17:04:02 19.8 C 5.3 g/m*3 19.8 C 0 km/h
806 19-09-2010 17:16:02 19.1 C 5.25 g/m*3 19.1 C 0 km/h
807 19-09-2010 17:28:02 18.6 C 5.57 g/m*3 18.6 C 0 km/h
808 19-09-2010 17:40:01 18.4 C 6.29 g/m*3 18.4 C 0 km/h
809 19-09-2010 17:52:02 18 C 5.99 g/m*3 18 C 0 km/h
810 19-09-2010 18:04:01 17.6 C 6 g/m*3 17.6 C 0 km/h
811 19-09-2010 18:16:02 17.2 C 6.3 g/m*3 17.2 C 0 km/h
812 19-09-2010 18:28:03 17.1 C 5.82 g/m*3 17.1 C 0 km/h
813 19-09-2010 18:40:01 17 C 6.08 g/m*3 17 C 0 km/h
814 19-09-2010 18:52:02 16.5 C 5.76 g/m*3 16.5 C 0 km/h
815 19-09-2010 19:04:02 16.2 C 5.79 g/m*3 16.2 C 0 km/h
816 19-09-2010 19:16:02 16 C 5.99 g/m*3 16 C 0 km/h
817 19-09-2010 19:28:02 15.8 C 5.92 g/m*3 15.8 C 0 km/h
818 19-09-2010 19:40:03 15.6 C 5.98 g/m*3 15.6 C 0 km/h
819 19-09-2010 19:52:02 15.3 C 6.14 g/m*3 15.3 C 0 km/h
820 19-09-2010 20:04:02 14.8 C 6.33 g/m*3 14.8 C 0 km/h
821 19-09-2010 20:16:02 14.5 C 6.34 g/m*3 14.5 C 0 km/h
822 19-09-2010 20:28:02 14.3 C 6.27 g/m*3 14.3 C 0 km/h
823 19-09-2010 20:40:02 14.3 C 6.39 g/m*3 14.3 C 0 km/h
824 19-09-2010 20:52:02 14.4 C 6.18 g/m*3 14.4 C 0 km/h
825 19-09-2010 21:04:02 14.4 C 6.43 g/m*3 14.4 C 0 km/h
Sensor: Nr:Datum:Temp:Abs-Feuchte:Windchill:Wind:
Aussen-T/F 826 19-09-2010 21:16:02 14.2 C 6.47 g/m*3 14.2 C 0 km/h
827 19-09-2010 21:28:02 14 C 6.51 g/m*3 14 C 0 km/h
828 19-09-2010 21:40:02 13.7 C 6.87 g/m*3 13.7 C 0 km/h
829 19-09-2010 21:52:03 13.5 C 6.78 g/m*3 13.5 C 0 km/h
830 19-09-2010 22:04:03 13.4 C 6.74 g/m*3 13.4 C 0 km/h
831 19-09-2010 22:17:01 13.3 C 6.7 g/m*3 13.3 C 0 km/h
832 19-09-2010 22:29:01 13.4 C 6.86 g/m*3 13.4 C 0 km/h
833 19-09-2010 22:41:01 13.3 C 6.82 g/m*3 13.3 C 0 km/h
834 19-09-2010 22:53:01 13.2 C 6.77 g/m*3 13.2 C 0 km/h
835 19-09-2010 23:05:01 13 C 6.8 g/m*3 13 C 0 km/h
836 19-09-2010 23:17:01 12.5 C 6.82 g/m*3 12.5 C 0 km/h
837 19-09-2010 23:29:01 12.2 C 6.8 g/m*3 12.2 C 0 km/h
838 19-09-2010 23:41:01 11.9 C 6.67 g/m*3 11.9 C 0 km/h
839 19-09-2010 23:53:01 11.8 C 6.74 g/m*3 11.8 C 0 km/h
840 20-09-2010 00:05:01 11.9 C 6.88 g/m*3 11.9 C 0 km/h
841 20-09-2010 00:17:01 11.9 C 6.99 g/m*3 11.9 C 0 km/h
842 20-09-2010 00:29:02 11.9 C 6.88 g/m*3 11.9 C 0 km/h
843 20-09-2010 00:41:02 11.4 C 6.77 g/m*3 11.4 C 0 km/h
844 20-09-2010 00:53:02 11.3 C 6.83 g/m*3 11.3 C 0 km/h
845 20-09-2010 01:05:02 10.8 C 6.72 g/m*3 10.8 C 0 km/h
846 20-09-2010 01:17:02 10.5 C 6.69 g/m*3 10.5 C 0 km/h
847 20-09-2010 01:29:02 10.4 C 6.75 g/m*3 10.4 C 0 km/h
848 20-09-2010 01:41:02 10.2 C 6.85 g/m*3 10.2 C 0 km/h
849 20-09-2010 01:53:02 10.3 C 6.9 g/m*3 10.3 C 0 km/h
850 20-09-2010 02:05:02 10.1 C 6.81 g/m*3 10.1 C 0 km/h
Sensor: Nr:Datum:Temp:Abs-Feuchte:Windchill:Wind:
Aussen-T/F 851 20-09-2010 02:17:02 10 C 6.77 g/m*3 10 C 0 km/h
852 20-09-2010 02:29:02 9.8 C 6.96 g/m*3 9.8 C 0 km/h
853 20-09-2010 02:41:02 9.6 C 6.87 g/m*3 9.6 C 0 km/h
854 20-09-2010 02:53:02 9.7 C 7.01 g/m*3 9.7 C 0 km/h
855 20-09-2010 03:05:02 9.8 C 6.96 g/m*3 9.8 C 0 km/h
856 20-09-2010 03:17:02 9.6 C 6.96 g/m*3 9.6 C 0 km/h
857 20-09-2010 03:29:02 9.7 C 7.1 g/m*3 9.7 C 0 km/h
858 20-09-2010 03:41:02 9.7 C 7.1 g/m*3 9.7 C 0 km/h
859 20-09-2010 03:53:02 9.4 C 6.96 g/m*3 9.4 C 0 km/h
860 20-09-2010 04:05:02 9.3 C 6.92 g/m*3 9.3 C 0 km/h
861 20-09-2010 04:17:02 9.2 C 6.88 g/m*3 9.2 C 0 km/h
862 20-09-2010 04:29:02 9 C 6.88 g/m*3 9 C 0 km/h
863 20-09-2010 04:41:03 8.8 C 6.88 g/m*3 8.8 C 0 km/h
864 20-09-2010 04:53:03 8.6 C 6.87 g/m*3 8.6 C 0 km/h
865 20-09-2010 05:05:03 8.4 C 6.87 g/m*3 8.4 C 0 km/h
866 20-09-2010 05:17:03 8.4 C 6.87 g/m*3 8.4 C 0 km/h
867 20-09-2010 05:29:03 8.3 C 6.91 g/m*3 8.3 C 0 km/h
868 20-09-2010 05:41:03 8.2 C 6.87 g/m*3 8.2 C 0 km/h
869 20-09-2010 05:53:03 8.3 C 6.91 g/m*3 8.3 C 0 km/h
870 20-09-2010 06:05:03 8.3 C 6.91 g/m*3 8.3 C 0 km/h
871 20-09-2010 06:17:03 8.4 C 7.04 g/m*3 8.4 C 0 km/h
872 20-09-2010 06:29:03 8.5 C 7 g/m*3 8.5 C 0 km/h
873 20-09-2010 06:41:03 8.5 C 7 g/m*3 8.5 C 0 km/h
874 20-09-2010 06:53:03 8.7 C 7.18 g/m*3 8.7 C 0 km/h
875 20-09-2010 07:05:01 8.6 C 7.13 g/m*3 8.6 C 0 km/h
Sensor: Nr:Datum:Temp:Abs-Feuchte:Windchill:Wind:
Aussen-T/F 876 20-09-2010 07:17:02 8.4 C 7.04 g/m*3 8.4 C 0 km/h
877 20-09-2010 07:29:02 8.5 C 7.09 g/m*3 8.5 C 0 km/h
878 20-09-2010 07:41:01 8.5 C 7.09 g/m*3 8.5 C 0 km/h
879 20-09-2010 07:53:02 8.6 C 7.13 g/m*3 8.6 C 0 km/h
880 20-09-2010 08:05:02 9 C 7.14 g/m*3 9 C 0 km/h
881 20-09-2010 08:17:02 9.2 C 6.97 g/m*3 9.2 C 0 km/h
882 20-09-2010 08:29:02 9.2 C 6.79 g/m*3 9.2 C 0 km/h
883 20-09-2010 08:41:02 9.3 C 6.74 g/m*3 9.3 C 0 km/h
884 20-09-2010 08:53:01 9.2 C 6.7 g/m*3 9.2 C 0 km/h
885 20-09-2010 09:05:02 9.3 C 6.83 g/m*3 9.3 C 0 km/h
886 20-09-2010 09:17:01 9.6 C 6.87 g/m*3 9.6 C 0 km/h
887 20-09-2010 09:29:01 9.7 C 6.82 g/m*3 9.7 C 0 km/h
888 20-09-2010 09:41:01 10 C 6.95 g/m*3 10 C 0 km/h
889 20-09-2010 09:53:01 10.6 C 7.12 g/m*3 10.6 C 0 km/h
890 20-09-2010 10:05:02 11.4 C 7.29 g/m*3 11.4 C 0 km/h
891 20-09-2010 10:17:02 12.1 C 7.18 g/m*3 12.1 C 0 km/h
892 20-09-2010 10:29:02 12.4 C 7.1 g/m*3 12.4 C 0 km/h
893 20-09-2010 10:41:01 12.9 C 7.33 g/m*3 12.9 C 0 km/h
894 20-09-2010 10:53:01 13.2 C 7.12 g/m*3 13.2 C 0 km/h
895 20-09-2010 11:05:01 13.3 C 7.39 g/m*3 13.3 C 0 km/h
896 20-09-2010 11:17:02 13.8 C 7.15 g/m*3 13.8 C 0 km/h
897 20-09-2010 11:29:02 14.8 C 6.84 g/m*3 14.8 C 0 km/h
898 20-09-2010 11:41:01 15.3 C 6.66 g/m*3 15.3 C 0 km/h
899 20-09-2010 11:53:02 15.9 C 6.77 g/m*3 15.9 C 0 km/h
900 20-09-2010 12:05:02 16.1 C 6.31 g/m*3 16.1 C 0 km/h
Sensor: Nr:Datum:Temp:Abs-Feuchte:Windchill:Wind:
Aussen-T/F 901 20-09-2010 12:17:02 15.9 C 6.5 g/m*3 15.9 C 0 km/h
902 20-09-2010 12:29:03 16.1 C 6.31 g/m*3 16.1 C 0 km/h
903 20-09-2010 12:41:02 16.4 C 6.42 g/m*3 16.4 C 0 km/h
904 20-09-2010 12:53:02 16.8 C 6.15 g/m*3 16.8 C 0 km/h
905 20-09-2010 13:05:01 17.1 C 6.11 g/m*3 17.1 C 0 km/h
906 20-09-2010 13:17:02 17.5 C 6.26 g/m*3 17.5 C 0 km/h
907 20-09-2010 13:29:02 18.1 C 6.33 g/m*3 18.1 C 0 km/h
908 20-09-2010 13:41:02 18.5 C 6.01 g/m*3 18.5 C 0 km/h
909 20-09-2010 13:53:02 18.9 C 5.83 g/m*3 18.9 C 0 km/h
910 20-09-2010 14:05:03 19.5 C 6.04 g/m*3 19.5 C 0 km/h
911 20-09-2010 14:17:02 19.7 C 5.94 g/m*3 19.7 C 0 km/h
912 20-09-2010 14:29:02 20.1 C 5.91 g/m*3 20.1 C 0 km/h
913 20-09-2010 14:41:02 20.5 C 5.69 g/m*3 20.5 C 0 km/h
914 20-09-2010 14:53:01 20.3 C 5.45 g/m*3 20.3 C 0 km/h
915 20-09-2010 15:05:02 20.8 C 5.79 g/m*3 20.8 C 0 km/h
916 20-09-2010 15:17:01 21.4 C 5.81 g/m*3 21.4 C 0 km/h
917 20-09-2010 15:29:01 21.5 C 5.85 g/m*3 21.5 C 0 km/h
918 20-09-2010 15:41:01 21.6 C 5.88 g/m*3 21.6 C 0 km/h
919 20-09-2010 15:53:01 21.8 C 5.95 g/m*3 21.8 C 0 km/h
920 20-09-2010 16:05:01 22.2 C 6.48 g/m*3 22.2 C 0 km/h
921 20-09-2010 16:17:02 22.6 C 6.23 g/m*3 22.6 C 0 km/h
922 20-09-2010 16:29:02 22.8 C 6.1 g/m*3 22.8 C 0 km/h
923 20-09-2010 16:41:01 22.6 C 6.23 g/m*3 22.6 C 0 km/h
924 20-09-2010 16:53:01 22.1 C 6.05 g/m*3 22.1 C 0 km/h
925 20-09-2010 17:05:01 22.2 C 6.28 g/m*3 22.2 C 0 km/h
Sensor: Nr:Datum:Temp:Abs-Feuchte:Windchill:Wind:
Aussen-T/F 926 20-09-2010 17:17:02 22.1 C 5.86 g/m*3 22.1 C 0 km/h
927 20-09-2010 17:29:02 22.3 C 6.32 g/m*3 22.3 C 0 km/h
928 20-09-2010 17:41:01 22.1 C 5.86 g/m*3 22.1 C 0 km/h
929 20-09-2010 17:53:02 22.7 C 6.26 g/m*3 22.7 C 0 km/h
930 20-09-2010 18:05:02 22.7 C 6.47 g/m*3 22.7 C 0 km/h
931 20-09-2010 18:17:02 22.2 C 6.28 g/m*3 22.2 C 0 km/h
932 20-09-2010 18:29:02 21.6 C 6.64 g/m*3 21.6 C 0 km/h
933 20-09-2010 18:41:02 20.6 C 6.8 g/m*3 20.6 C 0 km/h
934 20-09-2010 18:53:02 19.4 C 7.01 g/m*3 19.4 C 0 km/h
935 20-09-2010 19:05:01 18.9 C 6.97 g/m*3 18.9 C 0 km/h
936 20-09-2010 19:17:01 18.1 C 7.11 g/m*3 18.1 C 0 km/h
937 20-09-2010 19:29:01 17.5 C 7.31 g/m*3 17.5 C 0 km/h
938 20-09-2010 19:41:02 16.8 C 7.29 g/m*3 16.8 C 0 km/h
939 20-09-2010 19:53:02 16.2 C 7.17 g/m*3 16.2 C 0 km/h
940 20-09-2010 20:05:02 15.9 C 7.31 g/m*3 15.9 C 0 km/h
941 20-09-2010 20:17:02 15.6 C 7.45 g/m*3 15.6 C 0 km/h
942 20-09-2010 20:29:02 15.3 C 7.57 g/m*3 15.3 C 0 km/h
943 20-09-2010 20:41:02 15.1 C 7.74 g/m*3 15.1 C 0 km/h
944 20-09-2010 20:53:02 14.8 C 7.6 g/m*3 14.8 C 0 km/h
945 20-09-2010 21:05:02 14.7 C 7.68 g/m*3 14.7 C 0 km/h
946 20-09-2010 21:17:02 14.4 C 7.66 g/m*3 14.4 C 0 km/h
947 20-09-2010 21:29:02 14.2 C 7.69 g/m*3 14.2 C 0 km/h
948 20-09-2010 21:41:02 14 C 7.72 g/m*3 14 C 0 km/h
949 20-09-2010 21:53:02 13.7 C 7.82 g/m*3 13.7 C 0 km/h
950 20-09-2010 22:06:02 13.6 C 8 g/m*3 13.6 C 0 km/h
Sensor: Nr:Datum:Temp:Abs-Feuchte:Windchill:Wind:
Aussen-T/F 951 20-09-2010 22:18:02 13.5 C 7.95 g/m*3 13.5 C 0 km/h
952 20-09-2010 22:30:02 13.5 C 8.07 g/m*3 13.5 C 0 km/h
953 20-09-2010 22:42:02 12.9 C 8.11 g/m*3 12.9 C 0 km/h
954 20-09-2010 22:54:02 12.6 C 8.19 g/m*3 12.6 C 0 km/h
955 20-09-2010 23:06:02 12.6 C 8.19 g/m*3 12.6 C 0 km/h
956 20-09-2010 23:18:02 12.5 C 8.14 g/m*3 12.5 C 0 km/h
957 20-09-2010 23:30:02 12.3 C 8.04 g/m*3 12.3 C 0 km/h
958 20-09-2010 23:42:02 12.1 C 7.94 g/m*3 12.1 C 0 km/h
959 20-09-2010 23:54:02 11.9 C 7.94 g/m*3 11.9 C 0 km/h
960 21-09-2010 00:06:03 11.8 C 7.89 g/m*3 11.8 C 0 km/h
961 21-09-2010 00:18:03 11.6 C 7.9 g/m*3 11.6 C 0 km/h
962 21-09-2010 00:30:03 11.5 C 7.85 g/m*3 11.5 C 0 km/h
963 21-09-2010 00:42:03 11.4 C 7.9 g/m*3 11.4 C 0 km/h
964 21-09-2010 00:54:03 11.3 C 7.85 g/m*3 11.3 C 0 km/h
965 21-09-2010 01:06:03 11.2 C 7.8 g/m*3 11.2 C 0 km/h
966 21-09-2010 01:18:03 11.1 C 7.86 g/m*3 11.1 C 0 km/h
967 21-09-2010 01:30:03 10.9 C 7.86 g/m*3 10.9 C 0 km/h
968 21-09-2010 01:42:03 10.8 C 7.81 g/m*3 10.8 C 0 km/h
969 21-09-2010 01:54:03 10.5 C 7.66 g/m*3 10.5 C 0 km/h
970 21-09-2010 02:06:03 10.4 C 7.71 g/m*3 10.4 C 0 km/h
971 21-09-2010 02:18:03 10.4 C 7.71 g/m*3 10.4 C 0 km/h
972 21-09-2010 02:30:03 10.3 C 7.76 g/m*3 10.3 C 0 km/h
973 21-09-2010 02:42:03 10.1 C 7.66 g/m*3 10.1 C 0 km/h
974 21-09-2010 02:54:03 10 C 7.61 g/m*3 10 C 0 km/h
975 21-09-2010 03:06:03 10 C 7.71 g/m*3 10 C 0 km/h
Sensor: Nr:Datum:Temp:Abs-Feuchte:Windchill:Wind:
Aussen-T/F 976 21-09-2010 03:18:03 9.9 C 7.75 g/m*3 9.9 C 0 km/h
977 21-09-2010 03:30:03 9.8 C 7.79 g/m*3 9.8 C 0 km/h
978 21-09-2010 03:42:03 9.5 C 7.65 g/m*3 9.5 C 0 km/h
979 21-09-2010 03:54:03 9.5 C 7.65 g/m*3 9.5 C 0 km/h
980 21-09-2010 04:06:04 9.4 C 7.6 g/m*3 9.4 C 0 km/h
981 21-09-2010 04:18:04 9.3 C 7.55 g/m*3 9.3 C 0 km/h
982 21-09-2010 04:30:04 9.2 C 7.5 g/m*3 9.2 C 0 km/h
983 21-09-2010 04:42:04 9.2 C 7.5 g/m*3 9.2 C 0 km/h
984 21-09-2010 04:54:04 9 C 7.41 g/m*3 9 C 0 km/h
985 21-09-2010 05:06:04 9 C 7.49 g/m*3 9 C 0 km/h
986 21-09-2010 05:18:04 8.8 C 7.49 g/m*3 8.8 C 0 km/h
987 21-09-2010 05:30:04 8.8 C 7.49 g/m*3 8.8 C 0 km/h
988 21-09-2010 05:42:04 8.7 C 7.44 g/m*3 8.7 C 0 km/h
989 21-09-2010 05:54:04 8.6 C 7.39 g/m*3 8.6 C 0 km/h
990 21-09-2010 06:06:04 8.5 C 7.43 g/m*3 8.5 C 0 km/h
991 21-09-2010 06:18:04 8.4 C 7.38 g/m*3 8.4 C 0 km/h
992 21-09-2010 06:30:04 8.3 C 7.33 g/m*3 8.3 C 0 km/h
993 21-09-2010 06:42:04 8.2 C 7.29 g/m*3 8.2 C 0 km/h
994 21-09-2010 06:54:04 8.3 C 7.42 g/m*3 8.3 C 0 km/h
995 21-09-2010 07:06:02 8.2 C 7.37 g/m*3 8.2 C 0 km/h
996 21-09-2010 07:18:02 8.2 C 7.37 g/m*3 8.2 C 0 km/h
997 21-09-2010 07:30:02 8.1 C 7.32 g/m*3 8.1 C 0 km/h
998 21-09-2010 07:42:03 8.1 C 7.32 g/m*3 8.1 C 0 km/h
999 21-09-2010 07:54:02 8.1 C 7.32 g/m*3 8.1 C 0 km/h
1000 21-09-2010 08:06:01 8 C 7.36 g/m*3 8 C 0 km/h
Sensor: Nr:Datum:Temp:Abs-Feuchte:Windchill:Wind:
Aussen-T/F 1001 21-09-2010 08:18:02 8.1 C 7.41 g/m*3 8.1 C 0 km/h
1002 21-09-2010 08:30:02 8.2 C 7.54 g/m*3 8.2 C 0 km/h
1003 21-09-2010 08:42:02 8.4 C 7.63 g/m*3 8.4 C 0 km/h
1004 21-09-2010 08:54:02 8.6 C 7.73 g/m*3 8.6 C 0 km/h
1005 21-09-2010 09:06:02 8.7 C 7.78 g/m*3 8.7 C 0 km/h
1006 21-09-2010 09:18:02 8.9 C 7.88 g/m*3 8.9 C 0 km/h
1007 21-09-2010 09:30:02 9.3 C 8 g/m*3 9.3 C 0 km/h
1008 21-09-2010 09:42:02 9.5 C 8.1 g/m*3 9.5 C 0 km/h
1009 21-09-2010 09:54:01 9.5 C 8.1 g/m*3 9.5 C 0 km/h
1010 21-09-2010 10:06:02 9.9 C 8.31 g/m*3 9.9 C 0 km/h
1011 21-09-2010 10:18:01 10.5 C 8.53 g/m*3 10.5 C 0 km/h
1012 21-09-2010 10:30:01 11.1 C 8.76 g/m*3 11.1 C 0 km/h
1013 21-09-2010 10:42:01 11.7 C 8.99 g/m*3 11.7 C 0 km/h
1014 21-09-2010 10:54:01 12.4 C 8.96 g/m*3 12.4 C 0 km/h
1015 21-09-2010 11:06:01 13 C 8.51 g/m*3 13 C 0 km/h
1016 21-09-2010 11:18:02 13.6 C 8.59 g/m*3 13.6 C 0 km/h
1017 21-09-2010 11:30:02 14 C 8.56 g/m*3 14 C 0 km/h
1018 21-09-2010 11:42:01 14.7 C 8.81 g/m*3 14.7 C 0 km/h
1019 21-09-2010 11:54:03 15.3 C 8.75 g/m*3 15.3 C 0 km/h
1020 21-09-2010 12:06:02 15.8 C 8.75 g/m*3 15.8 C 0 km/h
1021 21-09-2010 12:18:02 16.5 C 8.85 g/m*3 16.5 C 0 km/h
1022 21-09-2010 12:30:03 16.5 C 9.13 g/m*3 16.5 C 0 km/h
1023 21-09-2010 12:42:02 16 C 8.86 g/m*3 16 C 0 km/h
1024 21-09-2010 12:54:02 15.9 C 9.34 g/m*3 15.9 C 0 km/h
1025 21-09-2010 13:06:02 16.4 C 9.77 g/m*3 16.4 C 0 km/h
Sensor: Nr:Datum:Temp:Abs-Feuchte:Windchill:Wind:
Aussen-T/F 1026 21-09-2010 13:18:02 16.6 C 9.46 g/m*3 16.6 C 0 km/h
1027 21-09-2010 13:30:02 16.8 C 9.72 g/m*3 16.8 C 0 km/h
1028 21-09-2010 13:42:02 17.3 C 9.87 g/m*3 17.3 C 0 km/h
1029 21-09-2010 13:54:02 18 C 9.37 g/m*3 18 C 0 km/h
1030 21-09-2010 14:06:02 17.5 C 9.54 g/m*3 17.5 C 0 km/h
1031 21-09-2010 14:18:01 17.4 C 9.63 g/m*3 17.4 C 0 km/h
1032 21-09-2010 14:30:01 17.2 C 9.52 g/m*3 17.2 C 0 km/h
1033 21-09-2010 14:42:02 17.5 C 9.54 g/m*3 17.5 C 0 km/h
1034 21-09-2010 14:54:02 19.5 C 9.06 g/m*3 19.5 C 0 km/h
1035 21-09-2010 15:06:02 21.3 C 8.76 g/m*3 21.3 C 0 km/h
1036 21-09-2010 15:18:02 22.6 C 8.44 g/m*3 22.6 C 0 km/h
1037 21-09-2010 15:30:02 23.3 C 7.95 g/m*3 23.3 C 0 km/h
1038 21-09-2010 15:42:02 23.9 C 7.79 g/m*3 23.9 C 0 km/h
1039 21-09-2010 15:54:02 24.5 C 7.83 g/m*3 24.5 C 0 km/h
1040 21-09-2010 16:06:02 25 C 7.6 g/m*3 25 C 0 km/h
1041 21-09-2010 16:18:02 25.2 C 7.45 g/m*3 25.2 C 0 km/h
1042 21-09-2010 16:30:02 25.2 C 7.68 g/m*3 25.2 C 0 km/h
1043 21-09-2010 16:42:02 25.1 C 7.87 g/m*3 25.1 C 0 km/h
1044 21-09-2010 16:54:02 25.3 C 7.49 g/m*3 25.3 C 0 km/h
1045 21-09-2010 17:06:02 25.4 C 7.53 g/m*3 25.4 C 0 km/h
1046 21-09-2010 17:18:02 25.5 C 7.81 g/m*3 25.5 C 0 km/h
1047 21-09-2010 17:30:02 24.5 C 7.39 g/m*3 24.5 C 0 km/h
1048 21-09-2010 17:42:02 24.1 C 7.44 g/m*3 24.1 C 0 km/h
1049 21-09-2010 17:54:02 23.5 C 7.61 g/m*3 23.5 C 0 km/h
1050 21-09-2010 18:06:02 23.2 C 7.69 g/m*3 23.2 C 0 km/h
Sensor: Nr:Datum:Temp:Abs-Feuchte:Windchill:Wind:
Aussen-T/F 1051 21-09-2010 18:18:02 22.7 C 7.88 g/m*3 22.7 C 0 km/h
1052 21-09-2010 18:30:02 22.2 C 7.85 g/m*3 22.2 C 0 km/h
1053 21-09-2010 18:42:02 21.7 C 8.01 g/m*3 21.7 C 0 km/h
1054 21-09-2010 18:54:02 21.1 C 7.92 g/m*3 21.1 C 0 km/h
1055 21-09-2010 19:06:01 20.2 C 8.04 g/m*3 20.2 C 0 km/h
1056 21-09-2010 19:18:02 19.5 C 8.22 g/m*3 19.5 C 0 km/h
1057 21-09-2010 19:30:02 18.5 C 8.39 g/m*3 18.5 C 0 km/h
1058 21-09-2010 19:42:02 17.8 C 8.5 g/m*3 17.8 C 0 km/h
1059 21-09-2010 19:54:02 17.2 C 8.49 g/m*3 17.2 C 0 km/h
1060 21-09-2010 20:06:03 16.8 C 8.58 g/m*3 16.8 C 0 km/h
1061 21-09-2010 20:18:02 16.5 C 8.43 g/m*3 16.5 C 0 km/h
1062 21-09-2010 20:30:02 16.3 C 8.46 g/m*3 16.3 C 0 km/h
1063 21-09-2010 20:42:02 16.1 C 8.5 g/m*3 16.1 C 0 km/h
1064 21-09-2010 20:54:02 15.8 C 8.62 g/m*3 15.8 C 0 km/h
1065 21-09-2010 21:06:02 15.6 C 8.51 g/m*3 15.6 C 0 km/h
1066 21-09-2010 21:18:01 15.4 C 8.41 g/m*3 15.4 C 0 km/h
1067 21-09-2010 21:30:01 15.1 C 8.51 g/m*3 15.1 C 0 km/h
1068 21-09-2010 21:42:02 14.7 C 8.56 g/m*3 14.7 C 0 km/h
1069 21-09-2010 21:54:02 14.5 C 8.46 g/m*3 14.5 C 0 km/h
1070 21-09-2010 22:06:02 14.4 C 8.53 g/m*3 14.4 C 0 km/h
1071 21-09-2010 22:18:01 14.1 C 8.5 g/m*3 14.1 C 0 km/h
1072 21-09-2010 22:30:01 13.9 C 8.51 g/m*3 13.9 C 0 km/h
1073 21-09-2010 22:42:01 13.6 C 8.47 g/m*3 13.6 C 0 km/h
1074 21-09-2010 22:54:01 13.5 C 8.54 g/m*3 13.5 C 0 km/h
1075 21-09-2010 23:06:01 13.2 C 8.38 g/m*3 13.2 C 0 km/h
Sensor: Nr:Datum:Temp:Abs-Feuchte:Windchill:Wind:
Aussen-T/F 1076 21-09-2010 23:18:01 13.1 C 8.44 g/m*3 13.1 C 0 km/h
1077 21-09-2010 23:30:01 13 C 8.51 g/m*3 13 C 0 km/h
1078 21-09-2010 23:42:01 12.9 C 8.68 g/m*3 12.9 C 0 km/h
1079 21-09-2010 23:54:01 12.7 C 8.68 g/m*3 12.7 C 0 km/h
1080 22-09-2010 00:06:01 12.5 C 8.69 g/m*3 12.5 C 0 km/h
1081 22-09-2010 00:18:01 12.3 C 8.58 g/m*3 12.3 C 0 km/h
1082 22-09-2010 00:30:01 12.2 C 8.52 g/m*3 12.2 C 0 km/h
1083 22-09-2010 00:42:01 12.1 C 8.47 g/m*3 12.1 C 0 km/h
1084 22-09-2010 00:54:01 11.9 C 8.47 g/m*3 11.9 C 0 km/h
1085 22-09-2010 01:06:02 11.8 C 8.53 g/m*3 11.8 C 0 km/h
1086 22-09-2010 01:18:02 11.6 C 8.42 g/m*3 11.6 C 0 km/h
1087 22-09-2010 01:30:02 11.5 C 8.47 g/m*3 11.5 C 0 km/h
1088 22-09-2010 01:42:02 11.3 C 8.26 g/m*3 11.3 C 0 km/h
1089 22-09-2010 01:54:02 11.3 C 8.36 g/m*3 11.3 C 0 km/h
1090 22-09-2010 02:06:02 11 C 8.21 g/m*3 11 C 0 km/h
1091 22-09-2010 02:18:02 10.9 C 8.16 g/m*3 10.9 C 0 km/h
1092 22-09-2010 02:30:02 10.8 C 8.2 g/m*3 10.8 C 0 km/h
1093 22-09-2010 02:42:02 10.7 C 8.15 g/m*3 10.7 C 0 km/h
1094 22-09-2010 02:54:02 10.5 C 8.05 g/m*3 10.5 C 0 km/h
1095 22-09-2010 03:06:02 10.4 C 8 g/m*3 10.4 C 0 km/h
1096 22-09-2010 03:18:02 10.4 C 8 g/m*3 10.4 C 0 km/h
1097 22-09-2010 03:30:02 10.3 C 8.04 g/m*3 10.3 C 0 km/h
1098 22-09-2010 03:42:02 10.1 C 7.94 g/m*3 10.1 C 0 km/h
1099 22-09-2010 03:54:02 9.9 C 8.03 g/m*3 9.9 C 0 km/h
1100 22-09-2010 04:06:02 9.9 C 8.03 g/m*3 9.9 C 0 km/h
Sensor: Nr:Datum:Temp:Abs-Feuchte:Windchill:Wind:
Aussen-T/F 1101 22-09-2010 04:18:02 9.7 C 7.93 g/m*3 9.7 C 0 km/h
1102 22-09-2010 04:30:02 9.6 C 7.79 g/m*3 9.6 C 0 km/h
1103 22-09-2010 04:42:02 9.6 C 7.88 g/m*3 9.6 C 0 km/h
1104 22-09-2010 04:54:02 9.8 C 8.07 g/m*3 9.8 C 0 km/h
1105 22-09-2010 05:06:02 9.8 C 8.07 g/m*3 9.8 C 0 km/h
1106 22-09-2010 05:18:02 9.9 C 8.22 g/m*3 9.9 C 0 km/h
1107 22-09-2010 05:30:03 9.9 C 8.22 g/m*3 9.9 C 0 km/h
1108 22-09-2010 05:42:03 9.9 C 8.22 g/m*3 9.9 C 0 km/h
1109 22-09-2010 05:54:03 9.7 C 8.02 g/m*3 9.7 C 0 km/h
1110 22-09-2010 06:06:03 9.8 C 8.16 g/m*3 9.8 C 0 km/h
1111 22-09-2010 06:18:03 9.8 C 8.16 g/m*3 9.8 C 0 km/h
1112 22-09-2010 06:30:03 9.8 C 8.16 g/m*3 9.8 C 0 km/h
1113 22-09-2010 06:42:03 9.7 C 8.11 g/m*3 9.7 C 0 km/h
1114 22-09-2010 06:54:03 9.8 C 8.16 g/m*3 9.8 C 0 km/h
1115 22-09-2010 07:06:01 9.8 C 8.16 g/m*3 9.8 C 0 km/h
1116 22-09-2010 07:18:02 9.8 C 8.16 g/m*3 9.8 C 0 km/h
1117 22-09-2010 07:30:02 9.6 C 8.06 g/m*3 9.6 C 0 km/h
1118 22-09-2010 07:42:01 9.3 C 7.91 g/m*3 9.3 C 0 km/h
1119 22-09-2010 07:54:01 9.3 C 7.91 g/m*3 9.3 C 0 km/h
1120 22-09-2010 08:06:01 9.3 C 7.91 g/m*3 9.3 C 0 km/h
1121 22-09-2010 08:18:02 9.3 C 7.91 g/m*3 9.3 C 0 km/h
1122 22-09-2010 08:30:02 9.6 C 8.15 g/m*3 9.6 C 0 km/h
1123 22-09-2010 08:42:01 9.3 C 7.91 g/m*3 9.3 C 0 km/h
1124 22-09-2010 08:54:02 9.3 C 7.91 g/m*3 9.3 C 0 km/h
1125 22-09-2010 09:06:01 9.6 C 8.06 g/m*3 9.6 C 0 km/h
Sensor: Nr:Datum:Temp:Abs-Feuchte:Windchill:Wind:
Aussen-T/F 1126 22-09-2010 09:18:02 9.8 C 8.16 g/m*3 9.8 C 0 km/h
1127 22-09-2010 09:30:02 10.2 C 8.09 g/m*3 10.2 C 0 km/h
1128 22-09-2010 09:42:01 10.3 C 8.04 g/m*3 10.3 C 0 km/h
1129 22-09-2010 09:54:02 11 C 8.41 g/m*3 11 C 0 km/h
1130 22-09-2010 10:06:01 11.8 C 8.63 g/m*3 11.8 C 0 km/h
1131 22-09-2010 10:18:01 12.4 C 8.74 g/m*3 12.4 C 0 km/h
1132 22-09-2010 10:30:01 12 C 8.31 g/m*3 12 C 0 km/h
1133 22-09-2010 10:42:02 12.7 C 8.79 g/m*3 12.7 C 0 km/h
1134 22-09-2010 10:54:01 13.2 C 8.73 g/m*3 13.2 C 0 km/h
1135 22-09-2010 11:06:02 12.9 C 8.68 g/m*3 12.9 C 0 km/h
1136 22-09-2010 11:18:01 13.1 C 8.9 g/m*3 13.1 C 0 km/h
1137 22-09-2010 11:30:01 13.6 C 9.3 g/m*3 13.6 C 0 km/h
1138 22-09-2010 11:42:02 14.2 C 9.52 g/m*3 14.2 C 0 km/h
1139 22-09-2010 11:54:01 15.1 C 9.55 g/m*3 15.1 C 0 km/h
1140 22-09-2010 12:06:02 15.6 C 9.71 g/m*3 15.6 C 0 km/h
1141 22-09-2010 12:18:01 16 C 9.67 g/m*3 16 C 0 km/h
1142 22-09-2010 12:30:01 16.5 C 9.97 g/m*3 16.5 C 0 km/h
1143 22-09-2010 12:42:01 17.1 C 10.19 g/m*3 17.1 C 0 km/h
1144 22-09-2010 12:54:01 17.5 C 10.29 g/m*3 17.5 C 0 km/h
1145 22-09-2010 13:06:01 18.4 C 9.91 g/m*3 18.4 C 0 km/h
1146 22-09-2010 13:18:02 19.1 C 9.84 g/m*3 19.1 C 0 km/h
1147 22-09-2010 13:30:02 19.7 C 10.19 g/m*3 19.7 C 0 km/h
1148 22-09-2010 13:42:01 20.4 C 10.26 g/m*3 20.4 C 0 km/h
1149 22-09-2010 13:54:01 21.2 C 10.19 g/m*3 21.2 C 0 km/h
1150 22-09-2010 14:06:01 21.8 C 10.36 g/m*3 21.8 C 0 km/h
Sensor: Nr:Datum:Temp:Abs-Feuchte:Windchill:Wind:
Aussen-T/F 1151 22-09-2010 14:18:02 22.2 C 10.01 g/m*3 22.2 C 0 km/h
1152 22-09-2010 14:30:02 22.9 C 10.22 g/m*3 22.9 C 0 km/h
1153 22-09-2010 14:42:01 23.4 C 9.88 g/m*3 23.4 C 0 km/h
1154 22-09-2010 14:54:02 24 C 9.79 g/m*3 24 C 0 km/h
1155 22-09-2010 15:06:01 24.2 C 9.9 g/m*3 24.2 C 0 km/h
1156 22-09-2010 15:18:01 24.1 C 9.63 g/m*3 24.1 C 0 km/h
1157 22-09-2010 15:30:01 24.9 C 9.61 g/m*3 24.9 C 0 km/h
1158 22-09-2010 15:42:01 25.6 C 8.81 g/m*3 25.6 C 0 km/h
1159 22-09-2010 15:54:01 26.5 C 8.26 g/m*3 26.5 C 0 km/h
1160 22-09-2010 16:06:01 26.9 C 8.7 g/m*3 26.9 C 0 km/h
1161 22-09-2010 16:18:01 27.1 C 8.8 g/m*3 27.1 C 0 km/h
1162 22-09-2010 16:30:01 27.4 C 8.68 g/m*3 27.4 C 0 km/h
1163 22-09-2010 16:42:02 27.6 C 8.51 g/m*3 27.6 C 0 km/h
1164 22-09-2010 16:54:01 27.6 C 8.25 g/m*3 27.6 C 0 km/h
1165 22-09-2010 17:06:02 27.3 C 7.85 g/m*3 27.3 C 0 km/h
1166 22-09-2010 17:18:01 27.4 C 8.16 g/m*3 27.4 C 0 km/h
1167 22-09-2010 17:30:01 27.2 C 8.07 g/m*3 27.2 C 0 km/h
1168 22-09-2010 17:42:01 26.9 C 7.93 g/m*3 26.9 C 0 km/h
1169 22-09-2010 17:54:01 26.5 C 8.76 g/m*3 26.5 C 0 km/h
1170 22-09-2010 18:06:02 26.1 C 8.81 g/m*3 26.1 C 0 km/h
1171 22-09-2010 18:18:01 25.6 C 9.05 g/m*3 25.6 C 0 km/h
1172 22-09-2010 18:30:01 25.3 C 9.36 g/m*3 25.3 C 0 km/h
1173 22-09-2010 18:42:01 24.1 C 8.97 g/m*3 24.1 C 0 km/h
1174 22-09-2010 18:54:01 23.3 C 9.2 g/m*3 23.3 C 0 km/h
1175 22-09-2010 19:06:01 22.5 C 9.19 g/m*3 22.5 C 0 km/h
Sensor: Nr:Datum:Temp:Abs-Feuchte:Windchill:Wind:
Aussen-T/F 1176 22-09-2010 19:18:02 21.8 C 9.4 g/m*3 21.8 C 0 km/h
1177 22-09-2010 19:30:02 20.6 C 9.31 g/m*3 20.6 C 0 km/h
1178 22-09-2010 19:42:01 20 C 8.99 g/m*3 20 C 0 km/h
1179 22-09-2010 19:54:01 19.5 C 9.06 g/m*3 19.5 C 0 km/h
1180 22-09-2010 20:06:01 19 C 9.13 g/m*3 19 C 0 km/h
1181 22-09-2010 20:18:02 18.7 C 9.13 g/m*3 18.7 C 0 km/h
1182 22-09-2010 20:30:02 18.5 C 9.02 g/m*3 18.5 C 0 km/h
1183 22-09-2010 20:42:01 18.4 C 9.12 g/m*3 18.4 C 0 km/h
1184 22-09-2010 20:54:02 18.1 C 9.12 g/m*3 18.1 C 0 km/h
1185 22-09-2010 21:06:01 17.9 C 9.31 g/m*3 17.9 C 0 km/h
1186 22-09-2010 21:18:01 17.6 C 9.45 g/m*3 17.6 C 0 km/h
1187 22-09-2010 21:30:01 17.5 C 9.24 g/m*3 17.5 C 0 km/h
1188 22-09-2010 21:42:01 17.3 C 9.28 g/m*3 17.3 C 0 km/h
1189 22-09-2010 21:54:01 17 C 9.26 g/m*3 17 C 0 km/h
1190 22-09-2010 22:08:02 16.8 C 9.29 g/m*3 16.8 C 0 km/h
1191 22-09-2010 22:20:02 16.4 C 9.35 g/m*3 16.4 C 0 km/h
1192 22-09-2010 22:32:02 16.1 C 9.32 g/m*3 16.1 C 0 km/h
1193 22-09-2010 22:44:02 15.9 C 9.21 g/m*3 15.9 C 0 km/h
1194 22-09-2010 22:56:02 15.7 C 9.1 g/m*3 15.7 C 0 km/h
1195 22-09-2010 23:08:02 15.4 C 8.8 g/m*3 15.4 C 0 km/h
1196 22-09-2010 23:20:02 15.1 C 8.77 g/m*3 15.1 C 0 km/h
1197 22-09-2010 23:32:02 14.9 C 8.79 g/m*3 14.9 C 0 km/h
1198 22-09-2010 23:44:02 14.7 C 8.81 g/m*3 14.7 C 0 km/h
1199 22-09-2010 23:56:02 14.5 C 8.71 g/m*3 14.5 C 0 km/h
1200 23-09-2010 00:08:02 14.4 C 8.53 g/m*3 14.4 C 0 km/h
Sensor: Nr:Datum:Temp:Abs-Feuchte:Windchill:Wind:
Aussen-T/F 1201 23-09-2010 00:20:02 14.2 C 8.67 g/m*3 14.2 C 0 km/h
1202 23-09-2010 00:32:02 14 C 8.56 g/m*3 14 C 0 km/h
1203 23-09-2010 00:44:02 13.8 C 8.7 g/m*3 13.8 C 0 km/h
1204 23-09-2010 00:56:02 13.7 C 8.76 g/m*3 13.7 C 0 km/h
1205 23-09-2010 01:08:02 13.5 C 8.77 g/m*3 13.5 C 0 km/h
1206 23-09-2010 01:20:02 13.4 C 8.72 g/m*3 13.4 C 0 km/h
1207 23-09-2010 01:32:02 13.2 C 8.73 g/m*3 13.2 C 0 km/h
1208 23-09-2010 01:44:02 13.1 C 8.67 g/m*3 13.1 C 0 km/h
1209 23-09-2010 01:56:03 12.9 C 8.68 g/m*3 12.9 C 0 km/h
1210 23-09-2010 02:08:03 12.8 C 8.74 g/m*3 12.8 C 0 km/h
1211 23-09-2010 02:20:03 12.6 C 8.74 g/m*3 12.6 C 0 km/h
1212 23-09-2010 02:32:03 12.4 C 8.74 g/m*3 12.4 C 0 km/h
1213 23-09-2010 02:44:03 12.3 C 8.69 g/m*3 12.3 C 0 km/h
1214 23-09-2010 02:56:03 12.1 C 8.58 g/m*3 12.1 C 0 km/h
1215 23-09-2010 03:08:03 12 C 8.53 g/m*3 12 C 0 km/h
1216 23-09-2010 03:20:03 11.8 C 8.53 g/m*3 11.8 C 0 km/h
1217 23-09-2010 03:32:03 11.8 C 8.53 g/m*3 11.8 C 0 km/h
1218 23-09-2010 03:44:03 11.8 C 8.63 g/m*3 11.8 C 0 km/h
1219 23-09-2010 03:56:03 11.6 C 8.63 g/m*3 11.6 C 0 km/h
1220 23-09-2010 04:08:03 11.4 C 8.52 g/m*3 11.4 C 0 km/h
1221 23-09-2010 04:20:03 11.2 C 8.41 g/m*3 11.2 C 0 km/h
1222 23-09-2010 04:32:03 11.2 C 8.41 g/m*3 11.2 C 0 km/h
1223 23-09-2010 04:44:03 11 C 8.31 g/m*3 11 C 0 km/h
1224 23-09-2010 04:56:03 11 C 8.31 g/m*3 11 C 0 km/h
1225 23-09-2010 05:08:03 10.9 C 8.36 g/m*3 10.9 C 0 km/h
Sensor: Nr:Datum:Temp:Abs-Feuchte:Windchill:Wind:
Aussen-T/F 1226 23-09-2010 05:20:03 10.7 C 8.25 g/m*3 10.7 C 0 km/h
1227 23-09-2010 05:32:03 10.6 C 8.2 g/m*3 10.6 C 0 km/h
1228 23-09-2010 05:44:03 10.5 C 8.15 g/m*3 10.5 C 0 km/h
1229 23-09-2010 05:56:03 10.5 C 8.15 g/m*3 10.5 C 0 km/h
1230 23-09-2010 06:08:03 10.4 C 8.1 g/m*3 10.4 C 0 km/h
1231 23-09-2010 06:20:04 10.5 C 8.24 g/m*3 10.5 C 0 km/h
1232 23-09-2010 06:32:04 10.6 C 8.3 g/m*3 10.6 C 0 km/h
1233 23-09-2010 06:44:04 10.4 C 8.19 g/m*3 10.4 C 0 km/h
1234 23-09-2010 06:56:04 10.4 C 8.19 g/m*3 10.4 C 0 km/h
1235 23-09-2010 07:08:02 10.5 C 8.24 g/m*3 10.5 C 0 km/h
1236 23-09-2010 07:20:01 10.4 C 8.19 g/m*3 10.4 C 0 km/h
1237 23-09-2010 07:32:02 10.5 C 8.24 g/m*3 10.5 C 0 km/h
1238 23-09-2010 07:44:02 10.6 C 8.3 g/m*3 10.6 C 0 km/h
1239 23-09-2010 07:56:02 10.6 C 8.3 g/m*3 10.6 C 0 km/h
1240 23-09-2010 08:08:02 10.6 C 8.3 g/m*3 10.6 C 0 km/h
1241 23-09-2010 08:20:01 10.7 C 8.35 g/m*3 10.7 C 0 km/h
1242 23-09-2010 08:32:02 10.8 C 8.4 g/m*3 10.8 C 0 km/h
1243 23-09-2010 08:44:02 11 C 8.51 g/m*3 11 C 0 km/h
1244 23-09-2010 08:56:02 11.3 C 8.57 g/m*3 11.3 C 0 km/h
1245 23-09-2010 09:08:01 11.4 C 8.52 g/m*3 11.4 C 0 km/h
1246 23-09-2010 09:20:01 11.4 C 8.52 g/m*3 11.4 C 0 km/h
1247 23-09-2010 09:32:02 11.4 C 8.52 g/m*3 11.4 C 0 km/h
1248 23-09-2010 09:44:02 11.7 C 8.79 g/m*3 11.7 C 0 km/h
1249 23-09-2010 09:56:02 12.3 C 8.9 g/m*3 12.3 C 0 km/h
1250 23-09-2010 10:08:02 12.4 C 8.96 g/m*3 12.4 C 0 km/h
Sensor: Nr:Datum:Temp:Abs-Feuchte:Windchill:Wind:
Aussen-T/F 1251 23-09-2010 10:20:02 12.5 C 9.02 g/m*3 12.5 C 0 km/h
1252 23-09-2010 10:32:02 12.9 C 9.24 g/m*3 12.9 C 0 km/h
1253 23-09-2010 10:44:02 13.3 C 9.36 g/m*3 13.3 C 0 km/h
1254 23-09-2010 10:56:02 13.8 C 9.65 g/m*3 13.8 C 0 km/h
1255 23-09-2010 11:08:02 14.1 C 9.71 g/m*3 14.1 C 0 km/h
1256 23-09-2010 11:20:02 15 C 10 g/m*3 15 C 0 km/h
1257 23-09-2010 11:32:02 15.8 C 10.23 g/m*3 15.8 C 0 km/h
1258 23-09-2010 11:44:02 16.3 C 10.13 g/m*3 16.3 C 0 km/h
1259 23-09-2010 11:56:02 17 C 10.27 g/m*3 17 C 0 km/h
1260 23-09-2010 12:08:02 17.5 C 10.44 g/m*3 17.5 C 0 km/h
1261 23-09-2010 12:20:02 18 C 10.44 g/m*3 18 C 0 km/h
1262 23-09-2010 12:32:02 18.7 C 10.73 g/m*3 18.7 C 0 km/h
1263 23-09-2010 12:44:02 19.2 C 10.55 g/m*3 19.2 C 0 km/h
1264 23-09-2010 12:56:02 19.9 C 10.82 g/m*3 19.9 C 0 km/h
1265 23-09-2010 13:08:02 20.5 C 11.03 g/m*3 20.5 C 0 km/h
1266 23-09-2010 13:20:02 21.4 C 11.06 g/m*3 21.4 C 0 km/h
1267 23-09-2010 13:32:01 22.3 C 11.26 g/m*3 22.3 C 0 km/h
1268 23-09-2010 13:44:01 23.3 C 10.66 g/m*3 23.3 C 0 km/h
1269 23-09-2010 13:56:02 24 C 9.14 g/m*3 24 C 0 km/h
1270 23-09-2010 14:08:01 24.5 C 9.62 g/m*3 24.5 C 0 km/h
1271 23-09-2010 14:20:02 23.8 C 10.11 g/m*3 23.8 C 0 km/h
1272 23-09-2010 14:32:02 23.7 C 10.48 g/m*3 23.7 C 0 km/h
1273 23-09-2010 14:44:02 23.8 C 10.54 g/m*3 23.8 C 0 km/h
1274 23-09-2010 14:56:02 24.5 C 10.3 g/m*3 24.5 C 0 km/h
1275 23-09-2010 15:08:02 25.2 C 8.85 g/m*3 25.2 C 0 km/h
Sensor: Nr:Datum:Temp:Abs-Feuchte:Windchill:Wind:
Aussen-T/F 1276 23-09-2010 15:20:02 25.2 C 9.78 g/m*3 25.2 C 0 km/h
1277 23-09-2010 15:32:02 24.8 C 9.33 g/m*3 24.8 C 0 km/h
1278 23-09-2010 15:44:03 25.1 C 9.26 g/m*3 25.1 C 0 km/h
1279 23-09-2010 15:56:01 24.9 C 9.61 g/m*3 24.9 C 0 km/h
1280 23-09-2010 16:08:02 25.1 C 10.19 g/m*3 25.1 C 0 km/h
1281 23-09-2010 16:20:01 26 C 9.74 g/m*3 26 C 0 km/h
1282 23-09-2010 16:32:01 25.6 C 9.05 g/m*3 25.6 C 0 km/h
1283 23-09-2010 16:44:01 24.9 C 10.07 g/m*3 24.9 C 0 km/h
1284 23-09-2010 16:56:01 24.1 C 10.28 g/m*3 24.1 C 0 km/h
1285 23-09-2010 17:08:01 23.7 C 10.91 g/m*3 23.7 C 0 km/h
1286 23-09-2010 17:20:02 23.4 C 10.72 g/m*3 23.4 C 0 km/h
1287 23-09-2010 17:32:01 23.2 C 10.81 g/m*3 23.2 C 0 km/h
1288 23-09-2010 17:44:01 23.3 C 10.45 g/m*3 23.3 C 0 km/h
1289 23-09-2010 17:56:02 23.8 C 10.76 g/m*3 23.8 C 0 km/h
1290 23-09-2010 18:08:01 23.3 C 10.45 g/m*3 23.3 C 0 km/h
1291 23-09-2010 18:20:02 22.6 C 10.25 g/m*3 22.6 C 0 km/h
1292 23-09-2010 18:32:01 21.7 C 10.68 g/m*3 21.7 C 0 km/h
1293 23-09-2010 18:44:01 21.6 C 10.81 g/m*3 21.6 C 0 km/h
1294 23-09-2010 18:56:02 21.4 C 10.87 g/m*3 21.4 C 0 km/h
1295 23-09-2010 19:08:02 20.9 C 10.93 g/m*3 20.9 C 0 km/h
1296 23-09-2010 19:20:02 20.4 C 10.97 g/m*3 20.4 C 0 km/h
1297 23-09-2010 19:32:02 19.8 C 11.1 g/m*3 19.8 C 0 km/h
1298 23-09-2010 19:44:02 19.4 C 11.18 g/m*3 19.4 C 0 km/h
1299 23-09-2010 19:56:02 19 C 11.08 g/m*3 19 C 0 km/h
1300 23-09-2010 20:08:01 18.8 C 11.43 g/m*3 18.8 C 0 km/h
Sensor: Nr:Datum:Temp:Abs-Feuchte:Windchill:Wind:
Aussen-T/F 1301 23-09-2010 20:20:02 18.6 C 11.3 g/m*3 18.6 C 0 km/h
1302 23-09-2010 20:32:02 18.6 C 11.3 g/m*3 18.6 C 0 km/h
1303 23-09-2010 20:44:02 18.4 C 11.32 g/m*3 18.4 C 0 km/h
1304 23-09-2010 20:56:02 18.1 C 11.12 g/m*3 18.1 C 0 km/h
1305 23-09-2010 21:08:02 18.4 C 11.48 g/m*3 18.4 C 0 km/h
1306 23-09-2010 21:20:01 18.3 C 11.41 g/m*3 18.3 C 0 km/h
1307 23-09-2010 21:32:02 18.4 C 11.64 g/m*3 18.4 C 0 km/h
1308 23-09-2010 21:44:02 18.7 C 11.53 g/m*3 18.7 C 0 km/h
1309 23-09-2010 21:57:02 18.7 C 11.37 g/m*3 18.7 C 0 km/h
1310 23-09-2010 22:09:02 18.5 C 11.23 g/m*3 18.5 C 0 km/h
1311 23-09-2010 22:21:02 18.5 C 11.39 g/m*3 18.5 C 0 km/h
1312 23-09-2010 22:33:02 17.9 C 11.6 g/m*3 17.9 C 0 km/h
1313 23-09-2010 22:45:02 17.7 C 12.52 g/m*3 17.7 C 0 km/h
1314 23-09-2010 22:57:02 17.1 C 12.23 g/m*3 17.1 C 0 km/h
1315 23-09-2010 23:09:02 16.9 C 12.37 g/m*3 16.9 C 0 km/h
1316 23-09-2010 23:21:02 16.5 C 12.22 g/m*3 16.5 C 0 km/h
1317 23-09-2010 23:33:02 16.4 C 12.28 g/m*3 16.4 C 0 km/h
1318 23-09-2010 23:45:02 16.2 C 12.14 g/m*3 16.2 C 0 km/h
1319 23-09-2010 23:57:02 16.2 C 12.27 g/m*3 16.2 C 0 km/h
1320 24-09-2010 00:09:02 16 C 12.13 g/m*3 16 C 0 km/h
1321 24-09-2010 00:21:02 15.9 C 12.32 g/m*3 15.9 C 0 km/h
1322 24-09-2010 00:33:02 15.6 C 12.1 g/m*3 15.6 C 0 km/h
1323 24-09-2010 00:45:02 15.5 C 12.16 g/m*3 15.5 C 0 km/h
1324 24-09-2010 00:57:02 15.5 C 12.16 g/m*3 15.5 C 0 km/h
1325 24-09-2010 01:09:02 15.5 C 12.16 g/m*3 15.5 C 0 km/h
Sensor: Nr:Datum:Temp:Abs-Feuchte:Windchill:Wind:
Aussen-T/F 1326 24-09-2010 01:21:02 15.5 C 12.29 g/m*3 15.5 C 0 km/h
1327 24-09-2010 01:33:02 15.6 C 12.37 g/m*3 15.6 C 0 km/h
1328 24-09-2010 01:45:02 15.6 C 12.37 g/m*3 15.6 C 0 km/h
1329 24-09-2010 01:57:03 15.5 C 12.29 g/m*3 15.5 C 0 km/h
1330 24-09-2010 02:09:03 15.5 C 12.29 g/m*3 15.5 C 0 km/h
1331 24-09-2010 02:21:03 15.5 C 12.29 g/m*3 15.5 C 0 km/h
1332 24-09-2010 02:33:03 15.4 C 12.22 g/m*3 15.4 C 0 km/h
1333 24-09-2010 02:45:03 15.3 C 12.01 g/m*3 15.3 C 0 km/h
1334 24-09-2010 02:57:03 15.2 C 11.94 g/m*3 15.2 C 0 km/h
1335 24-09-2010 03:09:03 15.1 C 11.87 g/m*3 15.1 C 0 km/h
1336 24-09-2010 03:21:03 14.9 C 11.85 g/m*3 14.9 C 0 km/h
1337 24-09-2010 03:33:03 14.9 C 11.85 g/m*3 14.9 C 0 km/h
1338 24-09-2010 03:45:03 14.9 C 11.98 g/m*3 14.9 C 0 km/h
1339 24-09-2010 03:57:03 14.9 C 11.98 g/m*3 14.9 C 0 km/h
1340 24-09-2010 04:09:03 14.8 C 11.91 g/m*3 14.8 C 0 km/h
1341 24-09-2010 04:21:03 14.8 C 11.91 g/m*3 14.8 C 0 km/h
1342 24-09-2010 04:33:03 14.8 C 11.91 g/m*3 14.8 C 0 km/h
1343 24-09-2010 04:45:03 14.8 C 11.91 g/m*3 14.8 C 0 km/h
1344 24-09-2010 04:57:03 14.7 C 11.83 g/m*3 14.7 C 0 km/h
1345 24-09-2010 05:09:03 14.5 C 11.69 g/m*3 14.5 C 0 km/h
1346 24-09-2010 05:21:03 14.5 C 11.69 g/m*3 14.5 C 0 km/h
1347 24-09-2010 05:33:03 14.5 C 11.69 g/m*3 14.5 C 0 km/h
1348 24-09-2010 05:45:03 14.6 C 11.76 g/m*3 14.6 C 0 km/h
1349 24-09-2010 05:57:03 14.6 C 11.76 g/m*3 14.6 C 0 km/h
1350 24-09-2010 06:09:03 14.7 C 11.83 g/m*3 14.7 C 0 km/h
Sensor: Nr:Datum:Temp:Abs-Feuchte:Windchill:Wind:
Aussen-T/F 1351 24-09-2010 06:21:04 14.7 C 11.83 g/m*3 14.7 C 0 km/h
1352 24-09-2010 06:33:04 14.7 C 11.83 g/m*3 14.7 C 0 km/h
1353 24-09-2010 06:45:04 14.7 C 11.83 g/m*3 14.7 C 0 km/h
1354 24-09-2010 06:57:04 14.7 C 11.83 g/m*3 14.7 C 0 km/h
1355 24-09-2010 07:09:04 14.5 C 11.69 g/m*3 14.5 C 0 km/h
1356 24-09-2010 07:21:04 14.4 C 11.62 g/m*3 14.4 C 0 km/h
1357 24-09-2010 07:33:02 14.3 C 11.55 g/m*3 14.3 C 0 km/h
1358 24-09-2010 07:45:02 14.4 C 11.62 g/m*3 14.4 C 0 km/h
1359 24-09-2010 07:57:02 14.4 C 11.62 g/m*3 14.4 C 0 km/h
1360 24-09-2010 08:09:02 14.4 C 11.62 g/m*3 14.4 C 0 km/h
1361 24-09-2010 08:21:01 14.3 C 11.55 g/m*3 14.3 C 0 km/h
1362 24-09-2010 08:33:02 14.6 C 11.89 g/m*3 14.6 C 0 km/h
1363 24-09-2010 08:45:02 14.8 C 12.03 g/m*3 14.8 C 0 km/h
1364 24-09-2010 08:57:02 14.8 C 12.03 g/m*3 14.8 C 0 km/h
1365 24-09-2010 09:09:01 14.8 C 12.03 g/m*3 14.8 C 0 km/h
1366 24-09-2010 09:21:02 14.8 C 12.03 g/m*3 14.8 C 0 km/h
1367 24-09-2010 09:33:01 14.9 C 12.11 g/m*3 14.9 C 0 km/h
1368 24-09-2010 09:45:02 14.9 C 12.11 g/m*3 14.9 C 0 km/h
1369 24-09-2010 09:57:02 15 C 12.05 g/m*3 15 C 0 km/h
1370 24-09-2010 10:09:02 15 C 12.05 g/m*3 15 C 0 km/h
1371 24-09-2010 10:21:02 14.9 C 12.11 g/m*3 14.9 C 0 km/h
1372 24-09-2010 10:33:02 15 C 12.05 g/m*3 15 C 0 km/h
1373 24-09-2010 10:45:01 15 C 12.05 g/m*3 15 C 0 km/h
1374 24-09-2010 10:57:01 15 C 12.05 g/m*3 15 C 0 km/h
1375 24-09-2010 11:09:02 15.1 C 12.13 g/m*3 15.1 C 0 km/h
Sensor: Nr:Datum:Temp:Abs-Feuchte:Windchill:Wind:
Aussen-T/F 1376 24-09-2010 11:21:01 15.1 C 12.13 g/m*3 15.1 C 0 km/h
1377 24-09-2010 11:33:01 15.4 C 12.35 g/m*3 15.4 C 0 km/h
1378 24-09-2010 11:45:02 15.4 C 12.35 g/m*3 15.4 C 0 km/h
1379 24-09-2010 11:57:02 15.1 C 12.13 g/m*3 15.1 C 0 km/h
1380 24-09-2010 12:09:02 15.1 C 12.13 g/m*3 15.1 C 0 km/h
1381 24-09-2010 12:21:02 15.1 C 12.13 g/m*3 15.1 C 0 km/h
1382 24-09-2010 12:33:03 15.4 C 12.48 g/m*3 15.4 C 0 km/h
1383 24-09-2010 12:45:02 15.1 C 12.13 g/m*3 15.1 C 0 km/h
1384 24-09-2010 12:57:03 15 C 12.05 g/m*3 15 C 0 km/h
1385 24-09-2010 13:09:02 14.8 C 11.91 g/m*3 14.8 C 0 km/h
1386 24-09-2010 13:21:02 14.6 C 11.76 g/m*3 14.6 C 0 km/h
1387 24-09-2010 13:33:02 14.5 C 11.69 g/m*3 14.5 C 0 km/h
1388 24-09-2010 13:45:02 14.5 C 11.69 g/m*3 14.5 C 0 km/h
1389 24-09-2010 13:57:02 14.4 C 11.62 g/m*3 14.4 C 0 km/h
1390 24-09-2010 14:09:03 14.1 C 11.41 g/m*3 14.1 C 0 km/h
1391 24-09-2010 14:21:02 13.8 C 11.2 g/m*3 13.8 C 0 km/h
1392 24-09-2010 14:33:03 13.5 C 10.99 g/m*3 13.5 C 0 km/h
1393 24-09-2010 14:45:02 13.2 C 10.79 g/m*3 13.2 C 0 km/h
1394 24-09-2010 14:57:02 13.1 C 10.73 g/m*3 13.1 C 0 km/h
1395 24-09-2010 15:09:02 12.9 C 10.71 g/m*3 12.9 C 0 km/h
1396 24-09-2010 15:21:03 13.1 C 10.73 g/m*3 13.1 C 0 km/h
1397 24-09-2010 15:33:02 13 C 10.77 g/m*3 13 C 0 km/h
1398 24-09-2010 15:45:03 13.2 C 10.91 g/m*3 13.2 C 0 km/h
1399 24-09-2010 15:57:03 13.2 C 10.91 g/m*3 13.2 C 0 km/h
1400 24-09-2010 16:09:02 13.3 C 10.98 g/m*3 13.3 C 0 km/h
Sensor: Nr:Datum:Temp:Abs-Feuchte:Windchill:Wind:
Aussen-T/F 1401 24-09-2010 16:21:02 13.7 C 11.25 g/m*3 13.7 C 0 km/h
1402 24-09-2010 16:33:02 14 C 11.46 g/m*3 14 C 0 km/h
1403 24-09-2010 16:45:02 14.1 C 11.53 g/m*3 14.1 C 0 km/h
1404 24-09-2010 16:57:02 13.9 C 11.39 g/m*3 13.9 C 0 km/h
1405 24-09-2010 17:09:02 13.9 C 11.39 g/m*3 13.9 C 0 km/h
1406 24-09-2010 17:21:02 13.9 C 11.39 g/m*3 13.9 C 0 km/h
1407 24-09-2010 17:33:02 13.4 C 10.93 g/m*3 13.4 C 0 km/h
1408 24-09-2010 17:45:02 13.2 C 10.79 g/m*3 13.2 C 0 km/h
1409 24-09-2010 17:57:02 13 C 10.66 g/m*3 13 C 0 km/h
1410 24-09-2010 18:09:01 13.2 C 10.79 g/m*3 13.2 C 0 km/h
1411 24-09-2010 18:21:01 13.3 C 10.86 g/m*3 13.3 C 0 km/h
1412 24-09-2010 18:33:02 13.3 C 10.86 g/m*3 13.3 C 0 km/h
1413 24-09-2010 18:45:02 13.3 C 10.86 g/m*3 13.3 C 0 km/h
1414 24-09-2010 18:57:02 13.2 C 10.79 g/m*3 13.2 C 0 km/h
1415 24-09-2010 19:09:02 13.1 C 10.73 g/m*3 13.1 C 0 km/h
1416 24-09-2010 19:21:01 12.9 C 10.71 g/m*3 12.9 C 0 km/h
1417 24-09-2010 19:33:02 12.8 C 10.64 g/m*3 12.8 C 0 km/h
1418 24-09-2010 19:45:02 12.7 C 10.58 g/m*3 12.7 C 0 km/h
1419 24-09-2010 19:57:02 12.7 C 10.58 g/m*3 12.7 C 0 km/h
1420 24-09-2010 20:09:02 12.7 C 10.58 g/m*3 12.7 C 0 km/h
1421 24-09-2010 20:21:01 12.7 C 10.58 g/m*3 12.7 C 0 km/h
1422 24-09-2010 20:33:02 12.7 C 10.58 g/m*3 12.7 C 0 km/h
1423 24-09-2010 20:45:01 12.7 C 10.58 g/m*3 12.7 C 0 km/h
1424 24-09-2010 20:57:01 12.7 C 10.58 g/m*3 12.7 C 0 km/h
1425 24-09-2010 21:09:02 12.8 C 10.64 g/m*3 12.8 C 0 km/h
Sensor: Nr:Datum:Temp:Abs-Feuchte:Windchill:Wind:
Aussen-T/F 1426 24-09-2010 21:21:02 12.8 C 10.64 g/m*3 12.8 C 0 km/h
1427 24-09-2010 21:33:02 12.9 C 10.71 g/m*3 12.9 C 0 km/h
1428 24-09-2010 21:45:02 12.8 C 10.64 g/m*3 12.8 C 0 km/h
1429 24-09-2010 21:57:02 12.8 C 10.64 g/m*3 12.8 C 0 km/h
1430 24-09-2010 22:09:01 12.8 C 10.64 g/m*3 12.8 C 0 km/h
1431 24-09-2010 22:21:02 12.8 C 10.64 g/m*3 12.8 C 0 km/h
1432 24-09-2010 22:33:02 12.7 C 10.58 g/m*3 12.7 C 0 km/h
1433 24-09-2010 22:46:04 12.6 C 10.51 g/m*3 12.6 C 0 km/h
1434 24-09-2010 22:58:04 12.6 C 10.51 g/m*3 12.6 C 0 km/h
1435 24-09-2010 23:10:04 12.5 C 10.44 g/m*3 12.5 C 0 km/h
1436 24-09-2010 23:22:04 12.4 C 10.38 g/m*3 12.4 C 0 km/h
1437 24-09-2010 23:34:04 12.4 C 10.38 g/m*3 12.4 C 0 km/h
1438 24-09-2010 23:46:04 12.3 C 10.32 g/m*3 12.3 C 0 km/h
1439 24-09-2010 23:58:04 12.4 C 10.38 g/m*3 12.4 C 0 km/h
1440 25-09-2010 00:10:04 12.4 C 10.38 g/m*3 12.4 C 0 km/h
1441 25-09-2010 00:22:04 12.5 C 10.44 g/m*3 12.5 C 0 km/h
1442 25-09-2010 00:34:04 12.5 C 10.44 g/m*3 12.5 C 0 km/h
1443 25-09-2010 00:46:04 12.5 C 10.44 g/m*3 12.5 C 0 km/h
1444 25-09-2010 00:58:05 12.5 C 10.44 g/m*3 12.5 C 0 km/h
1445 25-09-2010 01:10:05 12.5 C 10.44 g/m*3 12.5 C 0 km/h
1446 25-09-2010 01:22:05 12.5 C 10.44 g/m*3 12.5 C 0 km/h
1447 25-09-2010 01:34:05 12.5 C 10.44 g/m*3 12.5 C 0 km/h
1448 25-09-2010 01:46:05 12.5 C 10.44 g/m*3 12.5 C 0 km/h
1449 25-09-2010 01:58:05 12.6 C 10.51 g/m*3 12.6 C 0 km/h
1450 25-09-2010 02:10:05 12.6 C 10.51 g/m*3 12.6 C 0 km/h
Sensor: Nr:Datum:Temp:Abs-Feuchte:Windchill:Wind:
Aussen-T/F 1451 25-09-2010 02:22:05 12.6 C 10.51 g/m*3 12.6 C 0 km/h
1452 25-09-2010 02:34:05 12.6 C 10.51 g/m*3 12.6 C 0 km/h
1453 25-09-2010 02:46:05 12.6 C 10.51 g/m*3 12.6 C 0 km/h
1454 25-09-2010 02:58:05 12.6 C 10.51 g/m*3 12.6 C 0 km/h
1455 25-09-2010 03:10:05 12.7 C 10.58 g/m*3 12.7 C 0 km/h
1456 25-09-2010 03:22:05 12.6 C 10.51 g/m*3 12.6 C 0 km/h
1457 25-09-2010 03:34:05 12.6 C 10.51 g/m*3 12.6 C 0 km/h
1458 25-09-2010 03:46:05 12.6 C 10.51 g/m*3 12.6 C 0 km/h
1459 25-09-2010 03:58:05 12.6 C 10.51 g/m*3 12.6 C 0 km/h
1460 25-09-2010 04:10:05 12.6 C 10.51 g/m*3 12.6 C 0 km/h
1461 25-09-2010 04:22:05 12.5 C 10.44 g/m*3 12.5 C 0 km/h
1462 25-09-2010 04:34:05 12.6 C 10.51 g/m*3 12.6 C 0 km/h
1463 25-09-2010 04:46:05 12.5 C 10.44 g/m*3 12.5 C 0 km/h
1464 25-09-2010 04:58:06 12.5 C 10.44 g/m*3 12.5 C 0 km/h
1465 25-09-2010 05:10:06 12.5 C 10.44 g/m*3 12.5 C 0 km/h
1466 25-09-2010 05:22:06 12.4 C 10.38 g/m*3 12.4 C 0 km/h
1467 25-09-2010 05:34:06 12.4 C 10.38 g/m*3 12.4 C 0 km/h
1468 25-09-2010 05:46:06 12.3 C 10.32 g/m*3 12.3 C 0 km/h
1469 25-09-2010 05:58:06 12.3 C 10.21 g/m*3 12.3 C 0 km/h
1470 25-09-2010 06:10:06 12.1 C 10.08 g/m*3 12.1 C 0 km/h
1471 25-09-2010 06:22:06 12.1 C 10.08 g/m*3 12.1 C 0 km/h
1472 25-09-2010 06:34:06 12.1 C 10.08 g/m*3 12.1 C 0 km/h
1473 25-09-2010 06:46:06 12 C 10.02 g/m*3 12 C 0 km/h
1474 25-09-2010 06:58:06 12 C 10.02 g/m*3 12 C 0 km/h
1475 25-09-2010 07:10:06 12 C 10.02 g/m*3 12 C 0 km/h
Sensor: Nr:Datum:Temp:Abs-Feuchte:Windchill:Wind:
Aussen-T/F 1476 25-09-2010 07:22:06 11.9 C 9.96 g/m*3 11.9 C 0 km/h
1477 25-09-2010 07:34:06 11.9 C 9.96 g/m*3 11.9 C 0 km/h
1478 25-09-2010 07:46:02 11.8 C 9.89 g/m*3 11.8 C 0 km/h
1479 25-09-2010 07:58:02 11.8 C 9.89 g/m*3 11.8 C 0 km/h
1480 25-09-2010 08:10:02 11.7 C 9.83 g/m*3 11.7 C 0 km/h
1481 25-09-2010 08:22:02 11.6 C 9.77 g/m*3 11.6 C 0 km/h
1482 25-09-2010 08:34:02 11.2 C 9.43 g/m*3 11.2 C 0 km/h
1483 25-09-2010 08:46:02 11 C 9.31 g/m*3 11 C 0 km/h
1484 25-09-2010 08:58:02 10.8 C 9.19 g/m*3 10.8 C 0 km/h
1485 25-09-2010 09:10:01 10.6 C 9.08 g/m*3 10.6 C 0 km/h
1486 25-09-2010 09:22:02 10.4 C 8.96 g/m*3 10.4 C 0 km/h
1487 25-09-2010 09:34:02 10.5 C 8.92 g/m*3 10.5 C 0 km/h
1488 25-09-2010 09:46:02 10.5 C 8.83 g/m*3 10.5 C 0 km/h
1489 25-09-2010 09:58:02 10.4 C 8.29 g/m*3 10.4 C 0 km/h
1490 25-09-2010 10:10:03 10.5 C 8.15 g/m*3 10.5 C 0 km/h
1491 25-09-2010 10:22:02 10.8 C 8.2 g/m*3 10.8 C 0 km/h
1492 25-09-2010 10:34:02 11.1 C 8.36 g/m*3 11.1 C 0 km/h
1493 25-09-2010 10:46:01 11.3 C 8.36 g/m*3 11.3 C 0 km/h
1494 25-09-2010 10:58:01 11.5 C 8.16 g/m*3 11.5 C 0 km/h
1495 25-09-2010 11:10:02 11.6 C 7.8 g/m*3 11.6 C 0 km/h
1496 25-09-2010 11:22:01 12.1 C 7.72 g/m*3 12.1 C 0 km/h
1497 25-09-2010 11:34:02 12.3 C 7.38 g/m*3 12.3 C 0 km/h
1498 25-09-2010 11:46:01 12.5 C 7.26 g/m*3 12.5 C 0 km/h
1499 25-09-2010 11:58:01 13 C 7.03 g/m*3 13 C 0 km/h
1500 25-09-2010 12:10:02 12.8 C 6.83 g/m*3 12.8 C 0 km/h
Sensor: Nr:Datum:Temp:Abs-Feuchte:Windchill:Wind:
Aussen-T/F 1501 25-09-2010 12:22:01 12.8 C 7.06 g/m*3 12.8 C 0 km/h
1502 25-09-2010 12:34:02 12.4 C 6.88 g/m*3 12.4 C 0 km/h
1503 25-09-2010 12:46:02 11.8 C 6.84 g/m*3 11.8 C 0 km/h
1504 25-09-2010 12:58:02 12.4 C 6.88 g/m*3 12.4 C 0 km/h
1505 25-09-2010 13:10:02 12.7 C 6.68 g/m*3 12.7 C 0 km/h
1506 25-09-2010 13:22:01 13 C 6.35 g/m*3 13 C 0 km/h
1507 25-09-2010 13:34:02 13.8 C 6.43 g/m*3 13.8 C 0 km/h
1508 25-09-2010 13:46:01 13.5 C 5.38 g/m*3 13.5 C 0 km/h
1509 25-09-2010 13:58:01 13.3 C 5.31 g/m*3 13.3 C 0 km/h
1510 25-09-2010 14:10:02 13.7 C 5.45 g/m*3 13.7 C 0 km/h
1511 25-09-2010 14:22:01 13.5 C 5.5 g/m*3 13.5 C 0 km/h
1512 25-09-2010 14:34:02 13.8 C 5.36 g/m*3 13.8 C 0 km/h
1513 25-09-2010 14:46:01 14.4 C 5.32 g/m*3 14.4 C 0 km/h
1514 25-09-2010 14:58:01 15.8 C 5.12 g/m*3 15.8 C 0 km/h
1515 25-09-2010 15:10:02 14.8 C 4.43 g/m*3 14.8 C 0 km/h
1516 25-09-2010 15:22:02 14.5 C 4.6 g/m*3 14.5 C 0 km/h
1517 25-09-2010 15:34:01 15.7 C 4.68 g/m*3 15.7 C 0 km/h
1518 25-09-2010 15:46:02 15.5 C 4.63 g/m*3 15.5 C 0 km/h
1519 25-09-2010 15:58:02 14.7 C 5.04 g/m*3 14.7 C 0 km/h
1520 25-09-2010 16:10:01 14.2 C 4.88 g/m*3 14.2 C 0 km/h
1521 25-09-2010 16:22:02 14.4 C 5.07 g/m*3 14.4 C 0 km/h
1522 25-09-2010 16:34:01 14.7 C 5.16 g/m*3 14.7 C 0 km/h
1523 25-09-2010 16:46:02 15.6 C 4.79 g/m*3 15.6 C 0 km/h
1524 25-09-2010 16:58:02 14.7 C 4.91 g/m*3 14.7 C 0 km/h
1525 25-09-2010 17:10:02 14.3 C 4.91 g/m*3 14.3 C 0 km/h
Sensor: Nr:Datum:Temp:Abs-Feuchte:Windchill:Wind:
Aussen-T/F 1526 25-09-2010 17:22:02 14.8 C 5.32 g/m*3 14.8 C 0 km/h
1527 25-09-2010 17:34:03 15.6 C 5.19 g/m*3 15.6 C 0 km/h
1528 25-09-2010 17:46:02 16.8 C 5.15 g/m*3 16.8 C 0 km/h
1529 25-09-2010 17:58:02 16.5 C 4.77 g/m*3 16.5 C 0 km/h
1530 25-09-2010 18:10:01 15.4 C 4.47 g/m*3 15.4 C 0 km/h
1531 25-09-2010 18:22:01 14.3 C 4.67 g/m*3 14.3 C 0 km/h
1532 25-09-2010 18:34:02 13.9 C 4.92 g/m*3 13.9 C 0 km/h
1533 25-09-2010 18:46:02 13.8 C 5.36 g/m*3 13.8 C 0 km/h
1534 25-09-2010 18:58:02 13.7 C 5.8 g/m*3 13.7 C 0 km/h
1535 25-09-2010 19:10:02 13.5 C 5.5 g/m*3 13.5 C 0 km/h
1536 25-09-2010 19:22:02 13.1 C 5.59 g/m*3 13.1 C 0 km/h
1537 25-09-2010 19:34:02 13 C 5.67 g/m*3 13 C 0 km/h
1538 25-09-2010 19:46:02 12.7 C 5.9 g/m*3 12.7 C 0 km/h
1539 25-09-2010 19:58:02 12.6 C 6.08 g/m*3 12.6 C 0 km/h
1540 25-09-2010 20:10:02 12.5 C 5.72 g/m*3 12.5 C 0 km/h
1541 25-09-2010 20:22:02 12.2 C 5.61 g/m*3 12.2 C 0 km/h
1542 25-09-2010 20:34:02 11.8 C 5.79 g/m*3 11.8 C 0 km/h
1543 25-09-2010 20:46:02 11.1 C 6.04 g/m*3 11.1 C 0 km/h
1544 25-09-2010 20:58:02 10.9 C 6.17 g/m*3 10.9 C 0 km/h
1545 25-09-2010 21:10:02 10.4 C 6.17 g/m*3 10.4 C 0 km/h
1546 25-09-2010 21:22:03 10.2 C 6.28 g/m*3 10.2 C 0 km/h
1547 25-09-2010 21:34:02 10.1 C 6.34 g/m*3 10.1 C 0 km/h
1548 25-09-2010 21:46:03 10 C 6.3 g/m*3 10 C 0 km/h
1549 25-09-2010 21:58:03 9.9 C 6.44 g/m*3 9.9 C 0 km/h
1550 25-09-2010 22:10:02 9.9 C 6.54 g/m*3 9.9 C 0 km/h
Sensor: Nr:Datum:Temp:Abs-Feuchte:Windchill:Wind:
Aussen-T/F 1551 25-09-2010 22:22:02 10.2 C 6.57 g/m*3 10.2 C 0 km/h
1552 25-09-2010 22:34:02 10.5 C 6.69 g/m*3 10.5 C 0 km/h
1553 25-09-2010 22:46:02 10.5 C 6.69 g/m*3 10.5 C 0 km/h
1554 25-09-2010 22:58:02 10.3 C 6.9 g/m*3 10.3 C 0 km/h
1555 25-09-2010 23:10:02 9.6 C 7.15 g/m*3 9.6 C 0 km/h
1556 25-09-2010 23:22:02 9.3 C 7.28 g/m*3 9.3 C 0 km/h
1557 25-09-2010 23:34:01 9.2 C 7.5 g/m*3 9.2 C 0 km/h
1558 25-09-2010 23:46:02 9.1 C 7.45 g/m*3 9.1 C 0 km/h
1559 25-09-2010 23:58:02 9.2 C 7.59 g/m*3 9.2 C 0 km/h
1560 26-09-2010 00:10:01 9.1 C 7.63 g/m*3 9.1 C 0 km/h
1561 26-09-2010 00:22:02 9.5 C 7.92 g/m*3 9.5 C 0 km/h
1562 26-09-2010 00:34:02 9.5 C 7.92 g/m*3 9.5 C 0 km/h
1563 26-09-2010 00:46:02 9.6 C 7.79 g/m*3 9.6 C 0 km/h
1564 26-09-2010 00:58:02 9.5 C 7.55 g/m*3 9.5 C 0 km/h
1565 26-09-2010 01:10:02 9.5 C 7.37 g/m*3 9.5 C 0 km/h
1566 26-09-2010 01:22:02 9.5 C 7.28 g/m*3 9.5 C 0 km/h
1567 26-09-2010 01:34:02 9.4 C 7.15 g/m*3 9.4 C 0 km/h
1568 26-09-2010 01:46:01 9.5 C 7.19 g/m*3 9.5 C 0 km/h
1569 26-09-2010 01:58:01 9.5 C 7.19 g/m*3 9.5 C 0 km/h
1570 26-09-2010 02:10:02 9.5 C 7.19 g/m*3 9.5 C 0 km/h
1571 26-09-2010 02:22:01 9.5 C 7.1 g/m*3 9.5 C 0 km/h
1572 26-09-2010 02:34:01 9.3 C 7.01 g/m*3 9.3 C 0 km/h
1573 26-09-2010 02:46:01 9.4 C 6.96 g/m*3 9.4 C 0 km/h
1574 26-09-2010 02:58:01 9.4 C 6.96 g/m*3 9.4 C 0 km/h
1575 26-09-2010 03:10:01 9.3 C 6.92 g/m*3 9.3 C 0 km/h
Sensor: Nr:Datum:Temp:Abs-Feuchte:Windchill:Wind:
Aussen-T/F 1576 26-09-2010 03:22:01 9.3 C 7.01 g/m*3 9.3 C 0 km/h
1577 26-09-2010 03:34:01 9.3 C 7.1 g/m*3 9.3 C 0 km/h
1578 26-09-2010 03:46:01 9.1 C 7.1 g/m*3 9.1 C 0 km/h
1579 26-09-2010 03:58:01 9 C 7.23 g/m*3 9 C 0 km/h
1580 26-09-2010 04:10:01 9 C 7.32 g/m*3 9 C 0 km/h
1581 26-09-2010 04:22:01 9 C 7.23 g/m*3 9 C 0 km/h
1582 26-09-2010 04:34:02 8.9 C 7.27 g/m*3 8.9 C 0 km/h
1583 26-09-2010 04:46:01 8.7 C 7.26 g/m*3 8.7 C 0 km/h
1584 26-09-2010 04:58:01 8.8 C 7.31 g/m*3 8.8 C 0 km/h
1585 26-09-2010 05:10:02 9 C 7.32 g/m*3 9 C 0 km/h
1586 26-09-2010 05:22:01 9.1 C 7.36 g/m*3 9.1 C 0 km/h
1587 26-09-2010 05:34:01 9 C 7.32 g/m*3 9 C 0 km/h
1588 26-09-2010 05:46:01 9 C 7.32 g/m*3 9 C 0 km/h
1589 26-09-2010 05:58:01 9 C 7.32 g/m*3 9 C 0 km/h
1590 26-09-2010 06:10:02 9 C 7.32 g/m*3 9 C 0 km/h
1591 26-09-2010 06:22:01 9.1 C 7.36 g/m*3 9.1 C 0 km/h
1592 26-09-2010 06:34:01 8.8 C 7.31 g/m*3 8.8 C 0 km/h
1593 26-09-2010 06:46:01 8.8 C 7.4 g/m*3 8.8 C 0 km/h
1594 26-09-2010 06:58:01 8.8 C 7.49 g/m*3 8.8 C 0 km/h
1595 26-09-2010 07:10:01 8.8 C 7.49 g/m*3 8.8 C 0 km/h
1596 26-09-2010 07:22:02 8.5 C 7.26 g/m*3 8.5 C 0 km/h
1597 26-09-2010 07:34:01 8.6 C 7.39 g/m*3 8.6 C 0 km/h
1598 26-09-2010 07:46:02 8.9 C 7.62 g/m*3 8.9 C 0 km/h
1599 26-09-2010 07:58:02 9.2 C 7.5 g/m*3 9.2 C 0 km/h
1600 26-09-2010 08:10:01 9.5 C 7.55 g/m*3 9.5 C 0 km/h
Sensor: Nr:Datum:Temp:Abs-Feuchte:Windchill:Wind:
Aussen-T/F 1601 26-09-2010 08:22:02 9.6 C 7.33 g/m*3 9.6 C 0 km/h
1602 26-09-2010 08:34:01 9.7 C 7.19 g/m*3 9.7 C 0 km/h
1603 26-09-2010 08:46:02 9.7 C 7.19 g/m*3 9.7 C 0 km/h
1604 26-09-2010 08:58:02 9.6 C 7.24 g/m*3 9.6 C 0 km/h
1605 26-09-2010 09:10:01 9.4 C 7.24 g/m*3 9.4 C 0 km/h
1606 26-09-2010 09:22:01 9.4 C 7.33 g/m*3 9.4 C 0 km/h
1607 26-09-2010 09:34:02 10.5 C 7.57 g/m*3 10.5 C 0 km/h
1608 26-09-2010 09:46:01 11 C 7.11 g/m*3 11 C 0 km/h
1609 26-09-2010 09:58:01 11 C 6.61 g/m*3 11 C 0 km/h
1610 26-09-2010 10:10:02 11 C 6.61 g/m*3 11 C 0 km/h
1611 26-09-2010 10:22:01 11.6 C 6.76 g/m*3 11.6 C 0 km/h
1612 26-09-2010 10:34:02 12 C 6.61 g/m*3 12 C 0 km/h
1613 26-09-2010 10:46:01 11.9 C 6.78 g/m*3 11.9 C 0 km/h
1614 26-09-2010 10:58:01 12.7 C 7.01 g/m*3 12.7 C 0 km/h
1615 26-09-2010 11:10:02 12.9 C 6.42 g/m*3 12.9 C 0 km/h
1616 26-09-2010 11:22:01 13.1 C 6.5 g/m*3 13.1 C 0 km/h
1617 26-09-2010 11:34:02 13.2 C 6.66 g/m*3 13.2 C 0 km/h
1618 26-09-2010 11:46:02 13.5 C 6.32 g/m*3 13.5 C 0 km/h
1619 26-09-2010 11:58:02 13.4 C 6.28 g/m*3 13.4 C 0 km/h
1620 26-09-2010 12:10:01 14 C 6.39 g/m*3 14 C 0 km/h
1621 26-09-2010 12:22:02 14.3 C 6.51 g/m*3 14.3 C 0 km/h
1622 26-09-2010 12:34:01 14.6 C 6.51 g/m*3 14.6 C 0 km/h
1623 26-09-2010 12:46:01 15 C 6.28 g/m*3 15 C 0 km/h
1624 26-09-2010 12:58:01 14.5 C 6.22 g/m*3 14.5 C 0 km/h
1625 26-09-2010 13:10:02 14.5 C 6.34 g/m*3 14.5 C 0 km/h
Sensor: Nr:Datum:Temp:Abs-Feuchte:Windchill:Wind:
Aussen-T/F 1626 26-09-2010 13:22:01 13.2 C 7.12 g/m*3 13.2 C 0 km/h
1627 26-09-2010 13:34:01 12.6 C 7.63 g/m*3 12.6 C 0 km/h
1628 26-09-2010 13:46:01 12.4 C 8.3 g/m*3 12.4 C 0 km/h
1629 26-09-2010 13:58:01 12.3 C 8.25 g/m*3 12.3 C 0 km/h
1630 26-09-2010 14:10:01 13.2 C 8.61 g/m*3 13.2 C 0 km/h
1631 26-09-2010 14:22:01 13.4 C 8.37 g/m*3 13.4 C 0 km/h
1632 26-09-2010 14:34:01 13.3 C 8.43 g/m*3 13.3 C 0 km/h
1633 26-09-2010 14:46:01 13.2 C 8.15 g/m*3 13.2 C 0 km/h
1634 26-09-2010 14:58:01 13.4 C 7.9 g/m*3 13.4 C 0 km/h
1635 26-09-2010 15:10:01 13.6 C 7.89 g/m*3 13.6 C 0 km/h
1636 26-09-2010 15:22:02 13.9 C 8.39 g/m*3 13.9 C 0 km/h
1637 26-09-2010 15:34:01 14.4 C 8.16 g/m*3 14.4 C 0 km/h
1638 26-09-2010 15:46:02 14.5 C 7.96 g/m*3 14.5 C 0 km/h
1639 26-09-2010 15:58:02 14.5 C 8.21 g/m*3 14.5 C 0 km/h
1640 26-09-2010 16:10:01 13.7 C 7.7 g/m*3 13.7 C 0 km/h
1641 26-09-2010 16:22:02 13.8 C 7.51 g/m*3 13.8 C 0 km/h
1642 26-09-2010 16:34:01 15.7 C 7.09 g/m*3 15.7 C 0 km/h
1643 26-09-2010 16:46:01 15.5 C 6.21 g/m*3 15.5 C 0 km/h
1644 26-09-2010 16:58:01 15.9 C 6.5 g/m*3 15.9 C 0 km/h
1645 26-09-2010 17:10:01 16.1 C 6.44 g/m*3 16.1 C 0 km/h
1646 26-09-2010 17:22:01 15.6 C 6.38 g/m*3 15.6 C 0 km/h
1647 26-09-2010 17:34:02 15.4 C 6.7 g/m*3 15.4 C 0 km/h
1648 26-09-2010 17:46:01 14.6 C 6.76 g/m*3 14.6 C 0 km/h
1649 26-09-2010 17:58:01 14.2 C 6.72 g/m*3 14.2 C 0 km/h
1650 26-09-2010 18:10:02 13.6 C 6.83 g/m*3 13.6 C 0 km/h
Sensor: Nr:Datum:Temp:Abs-Feuchte:Windchill:Wind:
Aussen-T/F 1651 26-09-2010 18:22:01 13.1 C 6.85 g/m*3 13.1 C 0 km/h
1652 26-09-2010 18:34:01 12.9 C 6.99 g/m*3 12.9 C 0 km/h
1653 26-09-2010 18:46:01 12.7 C 7.01 g/m*3 12.7 C 0 km/h
1654 26-09-2010 18:58:01 12.5 C 7.04 g/m*3 12.5 C 0 km/h
1655 26-09-2010 19:10:02 12.4 C 7.1 g/m*3 12.4 C 0 km/h
1656 26-09-2010 19:22:01 12.4 C 7.1 g/m*3 12.4 C 0 km/h
1657 26-09-2010 19:34:01 12.2 C 7.01 g/m*3 12.2 C 0 km/h
1658 26-09-2010 19:46:01 12.1 C 7.18 g/m*3 12.1 C 0 km/h
1659 26-09-2010 19:58:01 12.1 C 7.08 g/m*3 12.1 C 0 km/h
1660 26-09-2010 20:10:02 12 C 7.25 g/m*3 12 C 0 km/h
1661 26-09-2010 20:22:01 11.9 C 7.31 g/m*3 11.9 C 0 km/h
1662 26-09-2010 20:34:01 11.7 C 7.22 g/m*3 11.7 C 0 km/h
1663 26-09-2010 20:46:01 11.7 C 7.22 g/m*3 11.7 C 0 km/h
1664 26-09-2010 20:58:01 11.6 C 7.07 g/m*3 11.6 C 0 km/h
1665 26-09-2010 21:10:01 11.6 C 7.07 g/m*3 11.6 C 0 km/h
1666 26-09-2010 21:22:01 11.4 C 7.08 g/m*3 11.4 C 0 km/h
1667 26-09-2010 21:34:01 11.2 C 7.1 g/m*3 11.2 C 0 km/h
1668 26-09-2010 21:46:01 10.9 C 7.16 g/m*3 10.9 C 0 km/h
1669 26-09-2010 21:58:01 10.7 C 7.17 g/m*3 10.7 C 0 km/h
1670 26-09-2010 22:10:01 10.3 C 6.99 g/m*3 10.3 C 0 km/h
1671 26-09-2010 22:22:01 10 C 7.05 g/m*3 10 C 0 km/h
1672 26-09-2010 22:34:01 9.7 C 7.1 g/m*3 9.7 C 0 km/h
1673 26-09-2010 22:47:04 9.3 C 7.1 g/m*3 9.3 C 0 km/h
1674 26-09-2010 22:59:04 9.2 C 7.05 g/m*3 9.2 C 0 km/h
1675 26-09-2010 23:11:04 9 C 7.05 g/m*3 9 C 0 km/h
Sensor: Nr:Datum:Temp:Abs-Feuchte:Windchill:Wind:
Aussen-T/F 1676 26-09-2010 23:23:04 8.9 C 7.18 g/m*3 8.9 C 0 km/h
1677 26-09-2010 23:35:04 8.9 C 7.27 g/m*3 8.9 C 0 km/h
1678 26-09-2010 23:47:04 8.8 C 7.22 g/m*3 8.8 C 0 km/h
1679 26-09-2010 23:59:04 8.6 C 7.13 g/m*3 8.6 C 0 km/h

Legende:
   Min
   Max


Maximal/Minimal-Werte vom 13.09.2010 - 26.09.2010

Sensor Min Max Avg
Temp
(Aussen-T/F)
5.5 °C
19-09-2010  06:04:05
27.6 °C
22-09-2010  16:42:02
14.16 °C
Abs-Feuchte
(Aussen-T/F)
4.25 g/m*3
17-09-2010  17:14:01
12.52 g/m*3
23-09-2010  22:45:02
8.1 g/m*3
Windchill
(Aussen-T/F)
5.5 C
19-09-2010  06:04:05
27.6 C
22-09-2010  16:42:02
14.15 C

Die Daten stammen von einer Davis Vantage Pro 2 Wetter-Station und werden unter Linux mit der Software wview2wettercgi und aufbereitet. Alle Angaben erfolgen ohne Gewähr für ihre Vollständigkeit oder Richtigkeit.
Kontakt: Rainer Krienke krienke@uni-koblenz.de . Meine Webseiten an der Uni Koblenz oder privat.
Version: $Revision: 0.78 $